<?xml version="1.0" encoding="UTF-8" standalone="no" ?>
<gpx xmlns="http://www.topografix.com/GPX/1/1" xmlns:xsi="http://www.w3.org/2001/XMLSchema-instance" xsi:schemaLocation="http://www.topografix.com/GPX/1/1 http://www.topografix.com/GPX/1/1/gpx.xsd" version="1.1" creator="VisuGPX - https://www.visugpx.com">
  <metadata>
    <name>DEVECEY</name>
    <desc><![CDATA[Joli petit parcours pour remise en forme du dimanche matin.]]></desc>
  </metadata>
  <trk>
    <name><![CDATA[R]]></name>
    <trkseg>
      <trkpt lat="47.32782" lon="6.01127">
        <ele>239</ele>
        <time>2015-05-15T06:58:40Z</time>
      </trkpt>
      <trkpt lat="47.32782" lon="6.01127">
        <ele>239</ele>
        <time>2015-05-15T06:58:55Z</time>
      </trkpt>
      <trkpt lat="47.32772" lon="6.01127">
        <ele>241</ele>
        <time>2015-05-15T06:59:08Z</time>
      </trkpt>
      <trkpt lat="47.32781" lon="6.0113">
        <ele>241</ele>
        <time>2015-05-15T06:59:21Z</time>
      </trkpt>
      <trkpt lat="47.32784" lon="6.01136">
        <ele>241</ele>
        <time>2015-05-15T06:59:25Z</time>
      </trkpt>
      <trkpt lat="47.32786" lon="6.01142">
        <ele>241</ele>
        <time>2015-05-15T06:59:27Z</time>
      </trkpt>
      <trkpt lat="47.32787" lon="6.0115">
        <ele>240</ele>
        <time>2015-05-15T06:59:29Z</time>
      </trkpt>
      <trkpt lat="47.32789" lon="6.0116">
        <ele>238</ele>
        <time>2015-05-15T06:59:32Z</time>
      </trkpt>
      <trkpt lat="47.3279" lon="6.01169">
        <ele>238</ele>
        <time>2015-05-15T06:59:34Z</time>
      </trkpt>
      <trkpt lat="47.32792" lon="6.01179">
        <ele>236</ele>
        <time>2015-05-15T06:59:36Z</time>
      </trkpt>
      <trkpt lat="47.32794" lon="6.01187">
        <ele>236</ele>
        <time>2015-05-15T06:59:38Z</time>
      </trkpt>
      <trkpt lat="47.32795" lon="6.01195">
        <ele>235</ele>
        <time>2015-05-15T06:59:40Z</time>
      </trkpt>
      <trkpt lat="47.32797" lon="6.01202">
        <ele>235</ele>
        <time>2015-05-15T06:59:42Z</time>
      </trkpt>
      <trkpt lat="47.32798" lon="6.0121">
        <ele>235</ele>
        <time>2015-05-15T06:59:44Z</time>
      </trkpt>
      <trkpt lat="47.32799" lon="6.01222">
        <ele>235</ele>
        <time>2015-05-15T06:59:47Z</time>
      </trkpt>
      <trkpt lat="47.32799" lon="6.0123">
        <ele>234</ele>
        <time>2015-05-15T06:59:49Z</time>
      </trkpt>
      <trkpt lat="47.32799" lon="6.01237">
        <ele>234</ele>
        <time>2015-05-15T06:59:51Z</time>
      </trkpt>
      <trkpt lat="47.32799" lon="6.01245">
        <ele>234</ele>
        <time>2015-05-15T06:59:53Z</time>
      </trkpt>
      <trkpt lat="47.32798" lon="6.01254">
        <ele>234</ele>
        <time>2015-05-15T06:59:55Z</time>
      </trkpt>
      <trkpt lat="47.32798" lon="6.01264">
        <ele>233</ele>
        <time>2015-05-15T06:59:57Z</time>
      </trkpt>
      <trkpt lat="47.32798" lon="6.01273">
        <ele>233</ele>
        <time>2015-05-15T06:59:59Z</time>
      </trkpt>
      <trkpt lat="47.32799" lon="6.01281">
        <ele>233</ele>
        <time>2015-05-15T07:00:01Z</time>
      </trkpt>
      <trkpt lat="47.328" lon="6.01294">
        <ele>232</ele>
        <time>2015-05-15T07:00:04Z</time>
      </trkpt>
      <trkpt lat="47.328" lon="6.01304">
        <ele>232</ele>
        <time>2015-05-15T07:00:06Z</time>
      </trkpt>
      <trkpt lat="47.328" lon="6.01312">
        <ele>232</ele>
        <time>2015-05-15T07:00:08Z</time>
      </trkpt>
      <trkpt lat="47.32801" lon="6.01319">
        <ele>232</ele>
        <time>2015-05-15T07:00:10Z</time>
      </trkpt>
      <trkpt lat="47.328" lon="6.01328">
        <ele>231</ele>
        <time>2015-05-15T07:00:12Z</time>
      </trkpt>
      <trkpt lat="47.32802" lon="6.01337">
        <ele>231</ele>
        <time>2015-05-15T07:00:14Z</time>
      </trkpt>
      <trkpt lat="47.32805" lon="6.01352">
        <ele>230</ele>
        <time>2015-05-15T07:00:17Z</time>
      </trkpt>
      <trkpt lat="47.32808" lon="6.0136">
        <ele>230</ele>
        <time>2015-05-15T07:00:19Z</time>
      </trkpt>
      <trkpt lat="47.32809" lon="6.01369">
        <ele>230</ele>
        <time>2015-05-15T07:00:21Z</time>
      </trkpt>
      <trkpt lat="47.32812" lon="6.01378">
        <ele>229</ele>
        <time>2015-05-15T07:00:23Z</time>
      </trkpt>
      <trkpt lat="47.32814" lon="6.01385">
        <ele>229</ele>
        <time>2015-05-15T07:00:25Z</time>
      </trkpt>
      <trkpt lat="47.32815" lon="6.01396">
        <ele>228</ele>
        <time>2015-05-15T07:00:29Z</time>
      </trkpt>
      <trkpt lat="47.32813" lon="6.01405">
        <ele>227</ele>
        <time>2015-05-15T07:00:32Z</time>
      </trkpt>
      <trkpt lat="47.32806" lon="6.01407">
        <ele>227</ele>
        <time>2015-05-15T07:00:34Z</time>
      </trkpt>
      <trkpt lat="47.32797" lon="6.01405">
        <ele>226</ele>
        <time>2015-05-15T07:00:36Z</time>
      </trkpt>
      <trkpt lat="47.3279" lon="6.01407">
        <ele>227</ele>
        <time>2015-05-15T07:00:38Z</time>
      </trkpt>
      <trkpt lat="47.32785" lon="6.01411">
        <ele>227</ele>
        <time>2015-05-15T07:00:40Z</time>
      </trkpt>
      <trkpt lat="47.32781" lon="6.01414">
        <ele>228</ele>
        <time>2015-05-15T07:00:42Z</time>
      </trkpt>
      <trkpt lat="47.32776" lon="6.01414">
        <ele>228</ele>
        <time>2015-05-15T07:00:44Z</time>
      </trkpt>
      <trkpt lat="47.32763" lon="6.01415">
        <ele>230</ele>
        <time>2015-05-15T07:00:47Z</time>
      </trkpt>
      <trkpt lat="47.32757" lon="6.01411">
        <ele>230</ele>
        <time>2015-05-15T07:00:49Z</time>
      </trkpt>
      <trkpt lat="47.3275" lon="6.01409">
        <ele>230</ele>
        <time>2015-05-15T07:00:51Z</time>
      </trkpt>
      <trkpt lat="47.32746" lon="6.01405">
        <ele>230</ele>
        <time>2015-05-15T07:00:53Z</time>
      </trkpt>
      <trkpt lat="47.32742" lon="6.01399">
        <ele>230</ele>
        <time>2015-05-15T07:00:55Z</time>
      </trkpt>
      <trkpt lat="47.32739" lon="6.01395">
        <ele>230</ele>
        <time>2015-05-15T07:00:57Z</time>
      </trkpt>
      <trkpt lat="47.32734" lon="6.0139">
        <ele>230</ele>
        <time>2015-05-15T07:00:59Z</time>
      </trkpt>
      <trkpt lat="47.32729" lon="6.01387">
        <ele>229</ele>
        <time>2015-05-15T07:01:01Z</time>
      </trkpt>
      <trkpt lat="47.32721" lon="6.01388">
        <ele>229</ele>
        <time>2015-05-15T07:01:04Z</time>
      </trkpt>
      <trkpt lat="47.32717" lon="6.01392">
        <ele>229</ele>
        <time>2015-05-15T07:01:06Z</time>
      </trkpt>
      <trkpt lat="47.32713" lon="6.01396">
        <ele>228</ele>
        <time>2015-05-15T07:01:08Z</time>
      </trkpt>
      <trkpt lat="47.32708" lon="6.01406">
        <ele>228</ele>
        <time>2015-05-15T07:01:12Z</time>
      </trkpt>
      <trkpt lat="47.32703" lon="6.0141">
        <ele>227</ele>
        <time>2015-05-15T07:01:14Z</time>
      </trkpt>
      <trkpt lat="47.32695" lon="6.01409">
        <ele>227</ele>
        <time>2015-05-15T07:01:17Z</time>
      </trkpt>
      <trkpt lat="47.32687" lon="6.01402">
        <ele>227</ele>
        <time>2015-05-15T07:01:21Z</time>
      </trkpt>
      <trkpt lat="47.32678" lon="6.01401">
        <ele>227</ele>
        <time>2015-05-15T07:01:25Z</time>
      </trkpt>
      <trkpt lat="47.32673" lon="6.01404">
        <ele>227</ele>
        <time>2015-05-15T07:01:27Z</time>
      </trkpt>
      <trkpt lat="47.32668" lon="6.01405">
        <ele>227</ele>
        <time>2015-05-15T07:01:29Z</time>
      </trkpt>
      <trkpt lat="47.32659" lon="6.01407">
        <ele>226</ele>
        <time>2015-05-15T07:01:32Z</time>
      </trkpt>
      <trkpt lat="47.32652" lon="6.01406">
        <ele>226</ele>
        <time>2015-05-15T07:01:34Z</time>
      </trkpt>
      <trkpt lat="47.32646" lon="6.01407">
        <ele>226</ele>
        <time>2015-05-15T07:01:36Z</time>
      </trkpt>
      <trkpt lat="47.32641" lon="6.01409">
        <ele>225</ele>
        <time>2015-05-15T07:01:38Z</time>
      </trkpt>
      <trkpt lat="47.32635" lon="6.01411">
        <ele>225</ele>
        <time>2015-05-15T07:01:40Z</time>
      </trkpt>
      <trkpt lat="47.32629" lon="6.01413">
        <ele>225</ele>
        <time>2015-05-15T07:01:42Z</time>
      </trkpt>
      <trkpt lat="47.32623" lon="6.01415">
        <ele>224</ele>
        <time>2015-05-15T07:01:44Z</time>
      </trkpt>
      <trkpt lat="47.32613" lon="6.01418">
        <ele>224</ele>
        <time>2015-05-15T07:01:47Z</time>
      </trkpt>
      <trkpt lat="47.32608" lon="6.0142">
        <ele>224</ele>
        <time>2015-05-15T07:01:49Z</time>
      </trkpt>
      <trkpt lat="47.32603" lon="6.01424">
        <ele>224</ele>
        <time>2015-05-15T07:01:51Z</time>
      </trkpt>
      <trkpt lat="47.32597" lon="6.01427">
        <ele>223</ele>
        <time>2015-05-15T07:01:53Z</time>
      </trkpt>
      <trkpt lat="47.32591" lon="6.0143">
        <ele>223</ele>
        <time>2015-05-15T07:01:55Z</time>
      </trkpt>
      <trkpt lat="47.32585" lon="6.01434">
        <ele>223</ele>
        <time>2015-05-15T07:01:57Z</time>
      </trkpt>
      <trkpt lat="47.3258" lon="6.01437">
        <ele>223</ele>
        <time>2015-05-15T07:01:59Z</time>
      </trkpt>
      <trkpt lat="47.32576" lon="6.0144">
        <ele>222</ele>
        <time>2015-05-15T07:02:01Z</time>
      </trkpt>
      <trkpt lat="47.3257" lon="6.01447">
        <ele>222</ele>
        <time>2015-05-15T07:02:04Z</time>
      </trkpt>
      <trkpt lat="47.32566" lon="6.01451">
        <ele>221</ele>
        <time>2015-05-15T07:02:06Z</time>
      </trkpt>
      <trkpt lat="47.3256" lon="6.01455">
        <ele>221</ele>
        <time>2015-05-15T07:02:08Z</time>
      </trkpt>
      <trkpt lat="47.32553" lon="6.01462">
        <ele>220</ele>
        <time>2015-05-15T07:02:12Z</time>
      </trkpt>
      <trkpt lat="47.32549" lon="6.01464">
        <ele>220</ele>
        <time>2015-05-15T07:02:14Z</time>
      </trkpt>
      <trkpt lat="47.32542" lon="6.01472">
        <ele>219</ele>
        <time>2015-05-15T07:02:17Z</time>
      </trkpt>
      <trkpt lat="47.32538" lon="6.01477">
        <ele>219</ele>
        <time>2015-05-15T07:02:19Z</time>
      </trkpt>
      <trkpt lat="47.32533" lon="6.01479">
        <ele>219</ele>
        <time>2015-05-15T07:02:21Z</time>
      </trkpt>
      <trkpt lat="47.32526" lon="6.01478">
        <ele>219</ele>
        <time>2015-05-15T07:02:23Z</time>
      </trkpt>
      <trkpt lat="47.32523" lon="6.01475">
        <ele>219</ele>
        <time>2015-05-15T07:02:25Z</time>
      </trkpt>
      <trkpt lat="47.32517" lon="6.01468">
        <ele>218</ele>
        <time>2015-05-15T07:02:29Z</time>
      </trkpt>
      <trkpt lat="47.32512" lon="6.01464">
        <ele>218</ele>
        <time>2015-05-15T07:02:31Z</time>
      </trkpt>
      <trkpt lat="47.32511" lon="6.01456">
        <ele>218</ele>
        <time>2015-05-15T07:02:34Z</time>
      </trkpt>
      <trkpt lat="47.32506" lon="6.01451">
        <ele>218</ele>
        <time>2015-05-15T07:02:36Z</time>
      </trkpt>
      <trkpt lat="47.32505" lon="6.01439">
        <ele>218</ele>
        <time>2015-05-15T07:02:40Z</time>
      </trkpt>
      <trkpt lat="47.32501" lon="6.01433">
        <ele>218</ele>
        <time>2015-05-15T07:02:42Z</time>
      </trkpt>
      <trkpt lat="47.32496" lon="6.01426">
        <ele>217</ele>
        <time>2015-05-15T07:02:45Z</time>
      </trkpt>
      <trkpt lat="47.3249" lon="6.01414">
        <ele>217</ele>
        <time>2015-05-15T07:02:49Z</time>
      </trkpt>
      <trkpt lat="47.32487" lon="6.01406">
        <ele>217</ele>
        <time>2015-05-15T07:02:53Z</time>
      </trkpt>
      <trkpt lat="47.32484" lon="6.01398">
        <ele>217</ele>
        <time>2015-05-15T07:02:57Z</time>
      </trkpt>
      <trkpt lat="47.32477" lon="6.01392">
        <ele>217</ele>
        <time>2015-05-15T07:03:01Z</time>
      </trkpt>
      <trkpt lat="47.32472" lon="6.01385">
        <ele>217</ele>
        <time>2015-05-15T07:03:04Z</time>
      </trkpt>
      <trkpt lat="47.32467" lon="6.01377">
        <ele>217</ele>
        <time>2015-05-15T07:03:08Z</time>
      </trkpt>
      <trkpt lat="47.32464" lon="6.0137">
        <ele>217</ele>
        <time>2015-05-15T07:03:10Z</time>
      </trkpt>
      <trkpt lat="47.32461" lon="6.01362">
        <ele>217</ele>
        <time>2015-05-15T07:03:12Z</time>
      </trkpt>
      <trkpt lat="47.32458" lon="6.01352">
        <ele>216</ele>
        <time>2015-05-15T07:03:15Z</time>
      </trkpt>
      <trkpt lat="47.32455" lon="6.01347">
        <ele>216</ele>
        <time>2015-05-15T07:03:17Z</time>
      </trkpt>
      <trkpt lat="47.32451" lon="6.01336">
        <ele>216</ele>
        <time>2015-05-15T07:03:21Z</time>
      </trkpt>
      <trkpt lat="47.32447" lon="6.01331">
        <ele>216</ele>
        <time>2015-05-15T07:03:23Z</time>
      </trkpt>
      <trkpt lat="47.32441" lon="6.01325">
        <ele>216</ele>
        <time>2015-05-15T07:03:27Z</time>
      </trkpt>
      <trkpt lat="47.32434" lon="6.01319">
        <ele>216</ele>
        <time>2015-05-15T07:03:31Z</time>
      </trkpt>
      <trkpt lat="47.32426" lon="6.01314">
        <ele>216</ele>
        <time>2015-05-15T07:03:34Z</time>
      </trkpt>
      <trkpt lat="47.3242" lon="6.0131">
        <ele>216</ele>
        <time>2015-05-15T07:03:36Z</time>
      </trkpt>
      <trkpt lat="47.32415" lon="6.01306">
        <ele>216</ele>
        <time>2015-05-15T07:03:38Z</time>
      </trkpt>
      <trkpt lat="47.3241" lon="6.01301">
        <ele>217</ele>
        <time>2015-05-15T07:03:40Z</time>
      </trkpt>
      <trkpt lat="47.32402" lon="6.01301">
        <ele>217</ele>
        <time>2015-05-15T07:03:42Z</time>
      </trkpt>
      <trkpt lat="47.32396" lon="6.01298">
        <ele>217</ele>
        <time>2015-05-15T07:03:44Z</time>
      </trkpt>
      <trkpt lat="47.3239" lon="6.01292">
        <ele>217</ele>
        <time>2015-05-15T07:03:47Z</time>
      </trkpt>
      <trkpt lat="47.32388" lon="6.01283">
        <ele>217</ele>
        <time>2015-05-15T07:03:49Z</time>
      </trkpt>
      <trkpt lat="47.32382" lon="6.01274">
        <ele>217</ele>
        <time>2015-05-15T07:03:53Z</time>
      </trkpt>
      <trkpt lat="47.32373" lon="6.01264">
        <ele>217</ele>
        <time>2015-05-15T07:03:57Z</time>
      </trkpt>
      <trkpt lat="47.32366" lon="6.01259">
        <ele>217</ele>
        <time>2015-05-15T07:04:01Z</time>
      </trkpt>
      <trkpt lat="47.32357" lon="6.01257">
        <ele>218</ele>
        <time>2015-05-15T07:04:04Z</time>
      </trkpt>
      <trkpt lat="47.32348" lon="6.01253">
        <ele>218</ele>
        <time>2015-05-15T07:04:08Z</time>
      </trkpt>
      <trkpt lat="47.32344" lon="6.0125">
        <ele>218</ele>
        <time>2015-05-15T07:04:10Z</time>
      </trkpt>
      <trkpt lat="47.32339" lon="6.01249">
        <ele>218</ele>
        <time>2015-05-15T07:04:12Z</time>
      </trkpt>
      <trkpt lat="47.32333" lon="6.01249">
        <ele>219</ele>
        <time>2015-05-15T07:04:15Z</time>
      </trkpt>
      <trkpt lat="47.32325" lon="6.01243">
        <ele>219</ele>
        <time>2015-05-15T07:04:19Z</time>
      </trkpt>
      <trkpt lat="47.32319" lon="6.01239">
        <ele>220</ele>
        <time>2015-05-15T07:04:21Z</time>
      </trkpt>
      <trkpt lat="47.32314" lon="6.01237">
        <ele>220</ele>
        <time>2015-05-15T07:04:23Z</time>
      </trkpt>
      <trkpt lat="47.32307" lon="6.01238">
        <ele>221</ele>
        <time>2015-05-15T07:04:27Z</time>
      </trkpt>
      <trkpt lat="47.32301" lon="6.0124">
        <ele>221</ele>
        <time>2015-05-15T07:04:29Z</time>
      </trkpt>
      <trkpt lat="47.32296" lon="6.01239">
        <ele>222</ele>
        <time>2015-05-15T07:04:32Z</time>
      </trkpt>
      <trkpt lat="47.32287" lon="6.0124">
        <ele>222</ele>
        <time>2015-05-15T07:04:36Z</time>
      </trkpt>
      <trkpt lat="47.32278" lon="6.01243">
        <ele>223</ele>
        <time>2015-05-15T07:04:40Z</time>
      </trkpt>
      <trkpt lat="47.32273" lon="6.01245">
        <ele>223</ele>
        <time>2015-05-15T07:04:42Z</time>
      </trkpt>
      <trkpt lat="47.32268" lon="6.01247">
        <ele>223</ele>
        <time>2015-05-15T07:04:45Z</time>
      </trkpt>
      <trkpt lat="47.32262" lon="6.01247">
        <ele>224</ele>
        <time>2015-05-15T07:04:49Z</time>
      </trkpt>
      <trkpt lat="47.32257" lon="6.01245">
        <ele>224</ele>
        <time>2015-05-15T07:04:51Z</time>
      </trkpt>
      <trkpt lat="47.32252" lon="6.01242">
        <ele>225</ele>
        <time>2015-05-15T07:04:53Z</time>
      </trkpt>
      <trkpt lat="47.32246" lon="6.01238">
        <ele>225</ele>
        <time>2015-05-15T07:04:55Z</time>
      </trkpt>
      <trkpt lat="47.32241" lon="6.01236">
        <ele>226</ele>
        <time>2015-05-15T07:04:57Z</time>
      </trkpt>
      <trkpt lat="47.32233" lon="6.01231">
        <ele>227</ele>
        <time>2015-05-15T07:05:01Z</time>
      </trkpt>
      <trkpt lat="47.32229" lon="6.01233">
        <ele>227</ele>
        <time>2015-05-15T07:05:03Z</time>
      </trkpt>
      <trkpt lat="47.32222" lon="6.01235">
        <ele>228</ele>
        <time>2015-05-15T07:05:06Z</time>
      </trkpt>
      <trkpt lat="47.32217" lon="6.01233">
        <ele>229</ele>
        <time>2015-05-15T07:05:10Z</time>
      </trkpt>
      <trkpt lat="47.32209" lon="6.01235">
        <ele>230</ele>
        <time>2015-05-15T07:05:14Z</time>
      </trkpt>
      <trkpt lat="47.32201" lon="6.01236">
        <ele>230</ele>
        <time>2015-05-15T07:05:17Z</time>
      </trkpt>
      <trkpt lat="47.32195" lon="6.01238">
        <ele>231</ele>
        <time>2015-05-15T07:05:19Z</time>
      </trkpt>
      <trkpt lat="47.32189" lon="6.01241">
        <ele>231</ele>
        <time>2015-05-15T07:05:21Z</time>
      </trkpt>
      <trkpt lat="47.32183" lon="6.01243">
        <ele>232</ele>
        <time>2015-05-15T07:05:23Z</time>
      </trkpt>
      <trkpt lat="47.32177" lon="6.01245">
        <ele>232</ele>
        <time>2015-05-15T07:05:25Z</time>
      </trkpt>
      <trkpt lat="47.32171" lon="6.01247">
        <ele>233</ele>
        <time>2015-05-15T07:05:27Z</time>
      </trkpt>
      <trkpt lat="47.32166" lon="6.01249">
        <ele>234</ele>
        <time>2015-05-15T07:05:29Z</time>
      </trkpt>
      <trkpt lat="47.32158" lon="6.01255">
        <ele>236</ele>
        <time>2015-05-15T07:05:33Z</time>
      </trkpt>
      <trkpt lat="47.32149" lon="6.0126">
        <ele>237</ele>
        <time>2015-05-15T07:05:36Z</time>
      </trkpt>
      <trkpt lat="47.32144" lon="6.01262">
        <ele>237</ele>
        <time>2015-05-15T07:05:38Z</time>
      </trkpt>
      <trkpt lat="47.32138" lon="6.01265">
        <ele>238</ele>
        <time>2015-05-15T07:05:40Z</time>
      </trkpt>
      <trkpt lat="47.32134" lon="6.01268">
        <ele>239</ele>
        <time>2015-05-15T07:05:42Z</time>
      </trkpt>
      <trkpt lat="47.32128" lon="6.01271">
        <ele>239</ele>
        <time>2015-05-15T07:05:44Z</time>
      </trkpt>
      <trkpt lat="47.32122" lon="6.01276">
        <ele>240</ele>
        <time>2015-05-15T07:05:47Z</time>
      </trkpt>
      <trkpt lat="47.32114" lon="6.01283">
        <ele>242</ele>
        <time>2015-05-15T07:05:51Z</time>
      </trkpt>
      <trkpt lat="47.32108" lon="6.01291">
        <ele>243</ele>
        <time>2015-05-15T07:05:55Z</time>
      </trkpt>
      <trkpt lat="47.32102" lon="6.01297">
        <ele>244</ele>
        <time>2015-05-15T07:05:59Z</time>
      </trkpt>
      <trkpt lat="47.32094" lon="6.01307">
        <ele>246</ele>
        <time>2015-05-15T07:06:03Z</time>
      </trkpt>
      <trkpt lat="47.32089" lon="6.01301">
        <ele>249</ele>
        <time>2015-05-15T07:06:08Z</time>
      </trkpt>
      <trkpt lat="47.32087" lon="6.01295">
        <ele>249</ele>
        <time>2015-05-15T07:06:10Z</time>
      </trkpt>
      <trkpt lat="47.32085" lon="6.01288">
        <ele>250</ele>
        <time>2015-05-15T07:06:12Z</time>
      </trkpt>
      <trkpt lat="47.32083" lon="6.01279">
        <ele>250</ele>
        <time>2015-05-15T07:06:14Z</time>
      </trkpt>
      <trkpt lat="47.32081" lon="6.01267">
        <ele>251</ele>
        <time>2015-05-15T07:06:17Z</time>
      </trkpt>
      <trkpt lat="47.32079" lon="6.01259">
        <ele>252</ele>
        <time>2015-05-15T07:06:19Z</time>
      </trkpt>
      <trkpt lat="47.32077" lon="6.01244">
        <ele>252</ele>
        <time>2015-05-15T07:06:23Z</time>
      </trkpt>
      <trkpt lat="47.32076" lon="6.01236">
        <ele>253</ele>
        <time>2015-05-15T07:06:25Z</time>
      </trkpt>
      <trkpt lat="47.32074" lon="6.01227">
        <ele>253</ele>
        <time>2015-05-15T07:06:27Z</time>
      </trkpt>
      <trkpt lat="47.32072" lon="6.0122">
        <ele>254</ele>
        <time>2015-05-15T07:06:29Z</time>
      </trkpt>
      <trkpt lat="47.32069" lon="6.01208">
        <ele>255</ele>
        <time>2015-05-15T07:06:32Z</time>
      </trkpt>
      <trkpt lat="47.32067" lon="6.01201">
        <ele>255</ele>
        <time>2015-05-15T07:06:34Z</time>
      </trkpt>
      <trkpt lat="47.32064" lon="6.01193">
        <ele>256</ele>
        <time>2015-05-15T07:06:36Z</time>
      </trkpt>
      <trkpt lat="47.32061" lon="6.01186">
        <ele>257</ele>
        <time>2015-05-15T07:06:38Z</time>
      </trkpt>
      <trkpt lat="47.3206" lon="6.01178">
        <ele>257</ele>
        <time>2015-05-15T07:06:40Z</time>
      </trkpt>
      <trkpt lat="47.32057" lon="6.0117">
        <ele>258</ele>
        <time>2015-05-15T07:06:42Z</time>
      </trkpt>
      <trkpt lat="47.32054" lon="6.01164">
        <ele>258</ele>
        <time>2015-05-15T07:06:44Z</time>
      </trkpt>
      <trkpt lat="47.3205" lon="6.01156">
        <ele>259</ele>
        <time>2015-05-15T07:06:47Z</time>
      </trkpt>
      <trkpt lat="47.32045" lon="6.01146">
        <ele>260</ele>
        <time>2015-05-15T07:06:51Z</time>
      </trkpt>
      <trkpt lat="47.32039" lon="6.01136">
        <ele>261</ele>
        <time>2015-05-15T07:06:55Z</time>
      </trkpt>
      <trkpt lat="47.32035" lon="6.01132">
        <ele>261</ele>
        <time>2015-05-15T07:06:57Z</time>
      </trkpt>
      <trkpt lat="47.32029" lon="6.01126">
        <ele>262</ele>
        <time>2015-05-15T07:06:59Z</time>
      </trkpt>
      <trkpt lat="47.32024" lon="6.01122">
        <ele>262</ele>
        <time>2015-05-15T07:07:01Z</time>
      </trkpt>
      <trkpt lat="47.3202" lon="6.01116">
        <ele>263</ele>
        <time>2015-05-15T07:07:04Z</time>
      </trkpt>
      <trkpt lat="47.32017" lon="6.0111">
        <ele>264</ele>
        <time>2015-05-15T07:07:06Z</time>
      </trkpt>
      <trkpt lat="47.32011" lon="6.01102">
        <ele>265</ele>
        <time>2015-05-15T07:07:10Z</time>
      </trkpt>
      <trkpt lat="47.32008" lon="6.01095">
        <ele>265</ele>
        <time>2015-05-15T07:07:12Z</time>
      </trkpt>
      <trkpt lat="47.32005" lon="6.01089">
        <ele>266</ele>
        <time>2015-05-15T07:07:14Z</time>
      </trkpt>
      <trkpt lat="47.32" lon="6.01082">
        <ele>266</ele>
        <time>2015-05-15T07:07:17Z</time>
      </trkpt>
      <trkpt lat="47.31996" lon="6.01071">
        <ele>267</ele>
        <time>2015-05-15T07:07:21Z</time>
      </trkpt>
      <trkpt lat="47.31993" lon="6.01061">
        <ele>268</ele>
        <time>2015-05-15T07:07:23Z</time>
      </trkpt>
      <trkpt lat="47.3199" lon="6.01053">
        <ele>269</ele>
        <time>2015-05-15T07:07:25Z</time>
      </trkpt>
      <trkpt lat="47.31987" lon="6.01047">
        <ele>269</ele>
        <time>2015-05-15T07:07:27Z</time>
      </trkpt>
      <trkpt lat="47.31983" lon="6.01036">
        <ele>270</ele>
        <time>2015-05-15T07:07:29Z</time>
      </trkpt>
      <trkpt lat="47.3198" lon="6.01026">
        <ele>270</ele>
        <time>2015-05-15T07:07:31Z</time>
      </trkpt>
      <trkpt lat="47.31976" lon="6.01022">
        <ele>271</ele>
        <time>2015-05-15T07:07:33Z</time>
      </trkpt>
      <trkpt lat="47.31971" lon="6.01015">
        <ele>272</ele>
        <time>2015-05-15T07:07:36Z</time>
      </trkpt>
      <trkpt lat="47.31968" lon="6.0101">
        <ele>273</ele>
        <time>2015-05-15T07:07:38Z</time>
      </trkpt>
      <trkpt lat="47.31962" lon="6.00998">
        <ele>273</ele>
        <time>2015-05-15T07:07:40Z</time>
      </trkpt>
      <trkpt lat="47.31958" lon="6.00989">
        <ele>274</ele>
        <time>2015-05-15T07:07:42Z</time>
      </trkpt>
      <trkpt lat="47.31953" lon="6.00981">
        <ele>275</ele>
        <time>2015-05-15T07:07:44Z</time>
      </trkpt>
      <trkpt lat="47.31949" lon="6.00972">
        <ele>275</ele>
        <time>2015-05-15T07:07:47Z</time>
      </trkpt>
      <trkpt lat="47.31945" lon="6.00967">
        <ele>276</ele>
        <time>2015-05-15T07:07:49Z</time>
      </trkpt>
      <trkpt lat="47.3194" lon="6.00957">
        <ele>277</ele>
        <time>2015-05-15T07:07:53Z</time>
      </trkpt>
      <trkpt lat="47.31936" lon="6.00949">
        <ele>277</ele>
        <time>2015-05-15T07:07:55Z</time>
      </trkpt>
      <trkpt lat="47.31931" lon="6.00941">
        <ele>276</ele>
        <time>2015-05-15T07:07:57Z</time>
      </trkpt>
      <trkpt lat="47.31926" lon="6.00931">
        <ele>276</ele>
        <time>2015-05-15T07:07:59Z</time>
      </trkpt>
      <trkpt lat="47.31922" lon="6.00924">
        <ele>277</ele>
        <time>2015-05-15T07:08:01Z</time>
      </trkpt>
      <trkpt lat="47.31918" lon="6.00917">
        <ele>277</ele>
        <time>2015-05-15T07:08:03Z</time>
      </trkpt>
      <trkpt lat="47.31914" lon="6.00913">
        <ele>277</ele>
        <time>2015-05-15T07:08:04Z</time>
      </trkpt>
      <trkpt lat="47.3191" lon="6.00906">
        <ele>278</ele>
        <time>2015-05-15T07:08:06Z</time>
      </trkpt>
      <trkpt lat="47.31905" lon="6.00898">
        <ele>278</ele>
        <time>2015-05-15T07:08:08Z</time>
      </trkpt>
      <trkpt lat="47.31904" lon="6.00891">
        <ele>278</ele>
        <time>2015-05-15T07:08:10Z</time>
      </trkpt>
      <trkpt lat="47.31901" lon="6.00885">
        <ele>279</ele>
        <time>2015-05-15T07:08:12Z</time>
      </trkpt>
      <trkpt lat="47.31898" lon="6.0088">
        <ele>279</ele>
        <time>2015-05-15T07:08:14Z</time>
      </trkpt>
      <trkpt lat="47.31903" lon="6.0087">
        <ele>280</ele>
        <time>2015-05-15T07:08:17Z</time>
      </trkpt>
      <trkpt lat="47.31907" lon="6.00862">
        <ele>280</ele>
        <time>2015-05-15T07:08:19Z</time>
      </trkpt>
      <trkpt lat="47.31905" lon="6.0085">
        <ele>280</ele>
        <time>2015-05-15T07:08:23Z</time>
      </trkpt>
      <trkpt lat="47.31902" lon="6.00842">
        <ele>281</ele>
        <time>2015-05-15T07:08:25Z</time>
      </trkpt>
      <trkpt lat="47.31898" lon="6.00833">
        <ele>282</ele>
        <time>2015-05-15T07:08:29Z</time>
      </trkpt>
      <trkpt lat="47.31895" lon="6.00827">
        <ele>282</ele>
        <time>2015-05-15T07:08:31Z</time>
      </trkpt>
      <trkpt lat="47.31892" lon="6.00822">
        <ele>283</ele>
        <time>2015-05-15T07:08:33Z</time>
      </trkpt>
      <trkpt lat="47.31889" lon="6.0081">
        <ele>284</ele>
        <time>2015-05-15T07:08:36Z</time>
      </trkpt>
      <trkpt lat="47.31887" lon="6.00803">
        <ele>284</ele>
        <time>2015-05-15T07:08:38Z</time>
      </trkpt>
      <trkpt lat="47.31883" lon="6.00796">
        <ele>285</ele>
        <time>2015-05-15T07:08:40Z</time>
      </trkpt>
      <trkpt lat="47.31881" lon="6.0079">
        <ele>286</ele>
        <time>2015-05-15T07:08:42Z</time>
      </trkpt>
      <trkpt lat="47.31878" lon="6.00784">
        <ele>286</ele>
        <time>2015-05-15T07:08:44Z</time>
      </trkpt>
      <trkpt lat="47.31873" lon="6.00774">
        <ele>287</ele>
        <time>2015-05-15T07:08:47Z</time>
      </trkpt>
      <trkpt lat="47.3187" lon="6.00768">
        <ele>288</ele>
        <time>2015-05-15T07:08:49Z</time>
      </trkpt>
      <trkpt lat="47.31866" lon="6.00761">
        <ele>289</ele>
        <time>2015-05-15T07:08:51Z</time>
      </trkpt>
      <trkpt lat="47.31862" lon="6.00753">
        <ele>289</ele>
        <time>2015-05-15T07:08:53Z</time>
      </trkpt>
      <trkpt lat="47.31858" lon="6.00749">
        <ele>290</ele>
        <time>2015-05-15T07:08:55Z</time>
      </trkpt>
      <trkpt lat="47.31855" lon="6.00739">
        <ele>291</ele>
        <time>2015-05-15T07:08:57Z</time>
      </trkpt>
      <trkpt lat="47.31852" lon="6.00731">
        <ele>291</ele>
        <time>2015-05-15T07:08:59Z</time>
      </trkpt>
      <trkpt lat="47.3185" lon="6.00723">
        <ele>291</ele>
        <time>2015-05-15T07:09:01Z</time>
      </trkpt>
      <trkpt lat="47.31846" lon="6.00712">
        <ele>292</ele>
        <time>2015-05-15T07:09:03Z</time>
      </trkpt>
      <trkpt lat="47.31841" lon="6.00699">
        <ele>293</ele>
        <time>2015-05-15T07:09:06Z</time>
      </trkpt>
      <trkpt lat="47.31838" lon="6.00692">
        <ele>293</ele>
        <time>2015-05-15T07:09:08Z</time>
      </trkpt>
      <trkpt lat="47.31834" lon="6.00683">
        <ele>293</ele>
        <time>2015-05-15T07:09:10Z</time>
      </trkpt>
      <trkpt lat="47.31832" lon="6.00673">
        <ele>293</ele>
        <time>2015-05-15T07:09:12Z</time>
      </trkpt>
      <trkpt lat="47.31828" lon="6.00664">
        <ele>294</ele>
        <time>2015-05-15T07:09:14Z</time>
      </trkpt>
      <trkpt lat="47.31824" lon="6.00652">
        <ele>294</ele>
        <time>2015-05-15T07:09:17Z</time>
      </trkpt>
      <trkpt lat="47.31823" lon="6.00645">
        <ele>294</ele>
        <time>2015-05-15T07:09:19Z</time>
      </trkpt>
      <trkpt lat="47.31822" lon="6.00638">
        <ele>294</ele>
        <time>2015-05-15T07:09:21Z</time>
      </trkpt>
      <trkpt lat="47.31821" lon="6.00631">
        <ele>294</ele>
        <time>2015-05-15T07:09:23Z</time>
      </trkpt>
      <trkpt lat="47.31819" lon="6.00625">
        <ele>295</ele>
        <time>2015-05-15T07:09:25Z</time>
      </trkpt>
      <trkpt lat="47.31822" lon="6.00609">
        <ele>295</ele>
        <time>2015-05-15T07:09:29Z</time>
      </trkpt>
      <trkpt lat="47.31822" lon="6.00602">
        <ele>296</ele>
        <time>2015-05-15T07:09:31Z</time>
      </trkpt>
      <trkpt lat="47.31823" lon="6.00595">
        <ele>296</ele>
        <time>2015-05-15T07:09:33Z</time>
      </trkpt>
      <trkpt lat="47.31822" lon="6.00586">
        <ele>296</ele>
        <time>2015-05-15T07:09:36Z</time>
      </trkpt>
      <trkpt lat="47.3182" lon="6.0058">
        <ele>297</ele>
        <time>2015-05-15T07:09:38Z</time>
      </trkpt>
      <trkpt lat="47.3182" lon="6.00573">
        <ele>297</ele>
        <time>2015-05-15T07:09:40Z</time>
      </trkpt>
      <trkpt lat="47.31819" lon="6.00566">
        <ele>297</ele>
        <time>2015-05-15T07:09:42Z</time>
      </trkpt>
      <trkpt lat="47.31817" lon="6.0056">
        <ele>297</ele>
        <time>2015-05-15T07:09:44Z</time>
      </trkpt>
      <trkpt lat="47.31821" lon="6.00553">
        <ele>297</ele>
        <time>2015-05-15T07:09:47Z</time>
      </trkpt>
      <trkpt lat="47.31823" lon="6.00541">
        <ele>298</ele>
        <time>2015-05-15T07:09:51Z</time>
      </trkpt>
      <trkpt lat="47.31825" lon="6.00534">
        <ele>298</ele>
        <time>2015-05-15T07:09:53Z</time>
      </trkpt>
      <trkpt lat="47.31826" lon="6.00527">
        <ele>298</ele>
        <time>2015-05-15T07:09:55Z</time>
      </trkpt>
      <trkpt lat="47.31827" lon="6.0052">
        <ele>298</ele>
        <time>2015-05-15T07:09:57Z</time>
      </trkpt>
      <trkpt lat="47.31826" lon="6.00513">
        <ele>298</ele>
        <time>2015-05-15T07:09:59Z</time>
      </trkpt>
      <trkpt lat="47.31825" lon="6.00506">
        <ele>298</ele>
        <time>2015-05-15T07:10:01Z</time>
      </trkpt>
      <trkpt lat="47.31824" lon="6.005">
        <ele>299</ele>
        <time>2015-05-15T07:10:03Z</time>
      </trkpt>
      <trkpt lat="47.31823" lon="6.00493">
        <ele>299</ele>
        <time>2015-05-15T07:10:06Z</time>
      </trkpt>
      <trkpt lat="47.31827" lon="6.00482">
        <ele>299</ele>
        <time>2015-05-15T07:10:10Z</time>
      </trkpt>
      <trkpt lat="47.3183" lon="6.00475">
        <ele>299</ele>
        <time>2015-05-15T07:10:12Z</time>
      </trkpt>
      <trkpt lat="47.31831" lon="6.00465">
        <ele>299</ele>
        <time>2015-05-15T07:10:14Z</time>
      </trkpt>
      <trkpt lat="47.31831" lon="6.00455">
        <ele>299</ele>
        <time>2015-05-15T07:10:17Z</time>
      </trkpt>
      <trkpt lat="47.31833" lon="6.00447">
        <ele>299</ele>
        <time>2015-05-15T07:10:19Z</time>
      </trkpt>
      <trkpt lat="47.31834" lon="6.00439">
        <ele>299</ele>
        <time>2015-05-15T07:10:21Z</time>
      </trkpt>
      <trkpt lat="47.31834" lon="6.00432">
        <ele>299</ele>
        <time>2015-05-15T07:10:23Z</time>
      </trkpt>
      <trkpt lat="47.31834" lon="6.00419">
        <ele>299</ele>
        <time>2015-05-15T07:10:27Z</time>
      </trkpt>
      <trkpt lat="47.31834" lon="6.00405">
        <ele>300</ele>
        <time>2015-05-15T07:10:31Z</time>
      </trkpt>
      <trkpt lat="47.31834" lon="6.00396">
        <ele>300</ele>
        <time>2015-05-15T07:10:34Z</time>
      </trkpt>
      <trkpt lat="47.31831" lon="6.00385">
        <ele>300</ele>
        <time>2015-05-15T07:10:36Z</time>
      </trkpt>
      <trkpt lat="47.31829" lon="6.00379">
        <ele>301</ele>
        <time>2015-05-15T07:10:38Z</time>
      </trkpt>
      <trkpt lat="47.31829" lon="6.00369">
        <ele>301</ele>
        <time>2015-05-15T07:10:42Z</time>
      </trkpt>
      <trkpt lat="47.31829" lon="6.00362">
        <ele>301</ele>
        <time>2015-05-15T07:10:45Z</time>
      </trkpt>
      <trkpt lat="47.31828" lon="6.00349">
        <ele>301</ele>
        <time>2015-05-15T07:10:49Z</time>
      </trkpt>
      <trkpt lat="47.31826" lon="6.00338">
        <ele>301</ele>
        <time>2015-05-15T07:10:53Z</time>
      </trkpt>
      <trkpt lat="47.31824" lon="6.00326">
        <ele>302</ele>
        <time>2015-05-15T07:10:57Z</time>
      </trkpt>
      <trkpt lat="47.31821" lon="6.0032">
        <ele>302</ele>
        <time>2015-05-15T07:11:00Z</time>
      </trkpt>
      <trkpt lat="47.31817" lon="6.00315">
        <ele>303</ele>
        <time>2015-05-15T07:11:02Z</time>
      </trkpt>
      <trkpt lat="47.31815" lon="6.00309">
        <ele>303</ele>
        <time>2015-05-15T07:11:03Z</time>
      </trkpt>
      <trkpt lat="47.3181" lon="6.00303">
        <ele>303</ele>
        <time>2015-05-15T07:11:06Z</time>
      </trkpt>
      <trkpt lat="47.31807" lon="6.00299">
        <ele>304</ele>
        <time>2015-05-15T07:11:08Z</time>
      </trkpt>
      <trkpt lat="47.318" lon="6.00291">
        <ele>305</ele>
        <time>2015-05-15T07:11:12Z</time>
      </trkpt>
      <trkpt lat="47.31794" lon="6.00288">
        <ele>305</ele>
        <time>2015-05-15T07:11:15Z</time>
      </trkpt>
      <trkpt lat="47.31788" lon="6.00285">
        <ele>306</ele>
        <time>2015-05-15T07:11:17Z</time>
      </trkpt>
      <trkpt lat="47.31783" lon="6.00283">
        <ele>306</ele>
        <time>2015-05-15T07:11:19Z</time>
      </trkpt>
      <trkpt lat="47.31779" lon="6.0028">
        <ele>306</ele>
        <time>2015-05-15T07:11:21Z</time>
      </trkpt>
      <trkpt lat="47.31773" lon="6.00278">
        <ele>307</ele>
        <time>2015-05-15T07:11:23Z</time>
      </trkpt>
      <trkpt lat="47.31767" lon="6.00275">
        <ele>307</ele>
        <time>2015-05-15T07:11:25Z</time>
      </trkpt>
      <trkpt lat="47.31761" lon="6.00273">
        <ele>307</ele>
        <time>2015-05-15T07:11:27Z</time>
      </trkpt>
      <trkpt lat="47.31755" lon="6.00273">
        <ele>307</ele>
        <time>2015-05-15T07:11:29Z</time>
      </trkpt>
      <trkpt lat="47.31745" lon="6.00272">
        <ele>308</ele>
        <time>2015-05-15T07:11:32Z</time>
      </trkpt>
      <trkpt lat="47.31736" lon="6.00273">
        <ele>309</ele>
        <time>2015-05-15T07:11:36Z</time>
      </trkpt>
      <trkpt lat="47.31728" lon="6.00275">
        <ele>309</ele>
        <time>2015-05-15T07:11:40Z</time>
      </trkpt>
      <trkpt lat="47.31719" lon="6.00273">
        <ele>309</ele>
        <time>2015-05-15T07:11:44Z</time>
      </trkpt>
      <trkpt lat="47.31712" lon="6.0027">
        <ele>309</ele>
        <time>2015-05-15T07:11:47Z</time>
      </trkpt>
      <trkpt lat="47.31708" lon="6.00268">
        <ele>309</ele>
        <time>2015-05-15T07:11:49Z</time>
      </trkpt>
      <trkpt lat="47.31704" lon="6.00264">
        <ele>309</ele>
        <time>2015-05-15T07:11:51Z</time>
      </trkpt>
      <trkpt lat="47.31698" lon="6.00255">
        <ele>310</ele>
        <time>2015-05-15T07:11:55Z</time>
      </trkpt>
      <trkpt lat="47.31693" lon="6.00251">
        <ele>310</ele>
        <time>2015-05-15T07:11:57Z</time>
      </trkpt>
      <trkpt lat="47.31689" lon="6.00246">
        <ele>310</ele>
        <time>2015-05-15T07:11:59Z</time>
      </trkpt>
      <trkpt lat="47.31683" lon="6.00242">
        <ele>310</ele>
        <time>2015-05-15T07:12:02Z</time>
      </trkpt>
      <trkpt lat="47.31677" lon="6.00242">
        <ele>310</ele>
        <time>2015-05-15T07:12:05Z</time>
      </trkpt>
      <trkpt lat="47.31671" lon="6.00241">
        <ele>310</ele>
        <time>2015-05-15T07:12:08Z</time>
      </trkpt>
      <trkpt lat="47.31667" lon="6.00242">
        <ele>310</ele>
        <time>2015-05-15T07:12:10Z</time>
      </trkpt>
      <trkpt lat="47.31654" lon="6.00242">
        <ele>309</ele>
        <time>2015-05-15T07:12:14Z</time>
      </trkpt>
      <trkpt lat="47.31647" lon="6.00234">
        <ele>306</ele>
        <time>2015-05-15T07:12:17Z</time>
      </trkpt>
      <trkpt lat="47.31646" lon="6.00226">
        <ele>305</ele>
        <time>2015-05-15T07:12:19Z</time>
      </trkpt>
      <trkpt lat="47.31645" lon="6.00218">
        <ele>304</ele>
        <time>2015-05-15T07:12:21Z</time>
      </trkpt>
      <trkpt lat="47.31643" lon="6.0021">
        <ele>302</ele>
        <time>2015-05-15T07:12:23Z</time>
      </trkpt>
      <trkpt lat="47.31642" lon="6.00202">
        <ele>301</ele>
        <time>2015-05-15T07:12:25Z</time>
      </trkpt>
      <trkpt lat="47.31636" lon="6.00192">
        <ele>302</ele>
        <time>2015-05-15T07:12:29Z</time>
      </trkpt>
      <trkpt lat="47.31632" lon="6.00189">
        <ele>302</ele>
        <time>2015-05-15T07:12:31Z</time>
      </trkpt>
      <trkpt lat="47.31627" lon="6.00184">
        <ele>302</ele>
        <time>2015-05-15T07:12:33Z</time>
      </trkpt>
      <trkpt lat="47.31622" lon="6.00174">
        <ele>301</ele>
        <time>2015-05-15T07:12:36Z</time>
      </trkpt>
      <trkpt lat="47.31619" lon="6.00167">
        <ele>301</ele>
        <time>2015-05-15T07:12:38Z</time>
      </trkpt>
      <trkpt lat="47.31617" lon="6.00159">
        <ele>301</ele>
        <time>2015-05-15T07:12:40Z</time>
      </trkpt>
      <trkpt lat="47.31617" lon="6.00144">
        <ele>301</ele>
        <time>2015-05-15T07:12:42Z</time>
      </trkpt>
      <trkpt lat="47.31617" lon="6.00134">
        <ele>300</ele>
        <time>2015-05-15T07:12:44Z</time>
      </trkpt>
      <trkpt lat="47.31614" lon="6.00123">
        <ele>299</ele>
        <time>2015-05-15T07:12:47Z</time>
      </trkpt>
      <trkpt lat="47.31611" lon="6.00116">
        <ele>299</ele>
        <time>2015-05-15T07:12:49Z</time>
      </trkpt>
      <trkpt lat="47.31603" lon="6.00108">
        <ele>299</ele>
        <time>2015-05-15T07:12:53Z</time>
      </trkpt>
      <trkpt lat="47.31595" lon="6.00105">
        <ele>300</ele>
        <time>2015-05-15T07:12:57Z</time>
      </trkpt>
      <trkpt lat="47.3159" lon="6.00104">
        <ele>300</ele>
        <time>2015-05-15T07:12:59Z</time>
      </trkpt>
      <trkpt lat="47.31582" lon="6.00102">
        <ele>300</ele>
        <time>2015-05-15T07:13:03Z</time>
      </trkpt>
      <trkpt lat="47.31576" lon="6.00099">
        <ele>300</ele>
        <time>2015-05-15T07:13:06Z</time>
      </trkpt>
      <trkpt lat="47.31572" lon="6.00096">
        <ele>300</ele>
        <time>2015-05-15T07:13:08Z</time>
      </trkpt>
      <trkpt lat="47.31568" lon="6.00092">
        <ele>301</ele>
        <time>2015-05-15T07:13:10Z</time>
      </trkpt>
      <trkpt lat="47.31563" lon="6.00089">
        <ele>301</ele>
        <time>2015-05-15T07:13:12Z</time>
      </trkpt>
      <trkpt lat="47.31559" lon="6.00085">
        <ele>301</ele>
        <time>2015-05-15T07:13:14Z</time>
      </trkpt>
      <trkpt lat="47.3155" lon="6.00079">
        <ele>301</ele>
        <time>2015-05-15T07:13:17Z</time>
      </trkpt>
      <trkpt lat="47.31544" lon="6.00077">
        <ele>301</ele>
        <time>2015-05-15T07:13:19Z</time>
      </trkpt>
      <trkpt lat="47.31538" lon="6.00076">
        <ele>301</ele>
        <time>2015-05-15T07:13:21Z</time>
      </trkpt>
      <trkpt lat="47.31531" lon="6.00073">
        <ele>302</ele>
        <time>2015-05-15T07:13:25Z</time>
      </trkpt>
      <trkpt lat="47.31526" lon="6.0007">
        <ele>302</ele>
        <time>2015-05-15T07:13:27Z</time>
      </trkpt>
      <trkpt lat="47.31521" lon="6.00069">
        <ele>302</ele>
        <time>2015-05-15T07:13:29Z</time>
      </trkpt>
      <trkpt lat="47.31516" lon="6.00067">
        <ele>303</ele>
        <time>2015-05-15T07:13:31Z</time>
      </trkpt>
      <trkpt lat="47.31509" lon="6.00064">
        <ele>303</ele>
        <time>2015-05-15T07:13:35Z</time>
      </trkpt>
      <trkpt lat="47.31504" lon="6.00062">
        <ele>303</ele>
        <time>2015-05-15T07:13:38Z</time>
      </trkpt>
      <trkpt lat="47.31496" lon="6.0006">
        <ele>304</ele>
        <time>2015-05-15T07:13:42Z</time>
      </trkpt>
      <trkpt lat="47.31488" lon="6.00057">
        <ele>304</ele>
        <time>2015-05-15T07:13:45Z</time>
      </trkpt>
      <trkpt lat="47.31482" lon="6.00057">
        <ele>305</ele>
        <time>2015-05-15T07:13:47Z</time>
      </trkpt>
      <trkpt lat="47.31477" lon="6.00056">
        <ele>305</ele>
        <time>2015-05-15T07:13:49Z</time>
      </trkpt>
      <trkpt lat="47.31471" lon="6.00052">
        <ele>305</ele>
        <time>2015-05-15T07:13:51Z</time>
      </trkpt>
      <trkpt lat="47.31463" lon="6.0005">
        <ele>305</ele>
        <time>2015-05-15T07:13:55Z</time>
      </trkpt>
      <trkpt lat="47.31458" lon="6.0005">
        <ele>305</ele>
        <time>2015-05-15T07:13:57Z</time>
      </trkpt>
      <trkpt lat="47.31453" lon="6.00049">
        <ele>306</ele>
        <time>2015-05-15T07:13:59Z</time>
      </trkpt>
      <trkpt lat="47.3145" lon="6.00045">
        <ele>306</ele>
        <time>2015-05-15T07:14:01Z</time>
      </trkpt>
      <trkpt lat="47.31442" lon="6.0004">
        <ele>307</ele>
        <time>2015-05-15T07:14:05Z</time>
      </trkpt>
      <trkpt lat="47.31434" lon="6.00039">
        <ele>307</ele>
        <time>2015-05-15T07:14:08Z</time>
      </trkpt>
      <trkpt lat="47.31429" lon="6.00038">
        <ele>308</ele>
        <time>2015-05-15T07:14:10Z</time>
      </trkpt>
      <trkpt lat="47.31421" lon="6.00034">
        <ele>308</ele>
        <time>2015-05-15T07:14:14Z</time>
      </trkpt>
      <trkpt lat="47.31414" lon="6.00031">
        <ele>309</ele>
        <time>2015-05-15T07:14:17Z</time>
      </trkpt>
      <trkpt lat="47.31406" lon="6.00026">
        <ele>310</ele>
        <time>2015-05-15T07:14:19Z</time>
      </trkpt>
      <trkpt lat="47.31398" lon="6.0002">
        <ele>311</ele>
        <time>2015-05-15T07:14:21Z</time>
      </trkpt>
      <trkpt lat="47.31393" lon="6.00018">
        <ele>312</ele>
        <time>2015-05-15T07:14:23Z</time>
      </trkpt>
      <trkpt lat="47.31385" lon="6.00018">
        <ele>313</ele>
        <time>2015-05-15T07:14:27Z</time>
      </trkpt>
      <trkpt lat="47.31378" lon="6.00017">
        <ele>314</ele>
        <time>2015-05-15T07:14:31Z</time>
      </trkpt>
      <trkpt lat="47.31371" lon="6.00016">
        <ele>315</ele>
        <time>2015-05-15T07:14:35Z</time>
      </trkpt>
      <trkpt lat="47.31366" lon="6.00013">
        <ele>315</ele>
        <time>2015-05-15T07:14:38Z</time>
      </trkpt>
      <trkpt lat="47.31361" lon="6.00011">
        <ele>316</ele>
        <time>2015-05-15T07:14:40Z</time>
      </trkpt>
      <trkpt lat="47.31357" lon="6.00009">
        <ele>316</ele>
        <time>2015-05-15T07:14:42Z</time>
      </trkpt>
      <trkpt lat="47.31353" lon="6.00007">
        <ele>316</ele>
        <time>2015-05-15T07:14:44Z</time>
      </trkpt>
      <trkpt lat="47.31344" lon="6.00002">
        <ele>317</ele>
        <time>2015-05-15T07:14:47Z</time>
      </trkpt>
      <trkpt lat="47.31338" lon="5.99999">
        <ele>317</ele>
        <time>2015-05-15T07:14:49Z</time>
      </trkpt>
      <trkpt lat="47.31332" lon="5.99994">
        <ele>318</ele>
        <time>2015-05-15T07:14:53Z</time>
      </trkpt>
      <trkpt lat="47.31328" lon="5.9999">
        <ele>318</ele>
        <time>2015-05-15T07:14:55Z</time>
      </trkpt>
      <trkpt lat="47.31323" lon="5.99982">
        <ele>319</ele>
        <time>2015-05-15T07:14:59Z</time>
      </trkpt>
      <trkpt lat="47.31313" lon="5.99976">
        <ele>319</ele>
        <time>2015-05-15T07:15:03Z</time>
      </trkpt>
      <trkpt lat="47.31308" lon="5.99972">
        <ele>319</ele>
        <time>2015-05-15T07:15:05Z</time>
      </trkpt>
      <trkpt lat="47.31308" lon="5.99965">
        <ele>319</ele>
        <time>2015-05-15T07:15:08Z</time>
      </trkpt>
      <trkpt lat="47.31306" lon="5.99958">
        <ele>319</ele>
        <time>2015-05-15T07:15:10Z</time>
      </trkpt>
      <trkpt lat="47.31306" lon="5.99946">
        <ele>318</ele>
        <time>2015-05-15T07:15:14Z</time>
      </trkpt>
      <trkpt lat="47.31308" lon="5.99936">
        <ele>318</ele>
        <time>2015-05-15T07:15:17Z</time>
      </trkpt>
      <trkpt lat="47.31308" lon="5.99929">
        <ele>318</ele>
        <time>2015-05-15T07:15:19Z</time>
      </trkpt>
      <trkpt lat="47.31309" lon="5.99917">
        <ele>318</ele>
        <time>2015-05-15T07:15:23Z</time>
      </trkpt>
      <trkpt lat="47.31309" lon="5.99909">
        <ele>318</ele>
        <time>2015-05-15T07:15:25Z</time>
      </trkpt>
      <trkpt lat="47.3131" lon="5.99899">
        <ele>318</ele>
        <time>2015-05-15T07:15:29Z</time>
      </trkpt>
      <trkpt lat="47.31312" lon="5.99892">
        <ele>319</ele>
        <time>2015-05-15T07:15:31Z</time>
      </trkpt>
      <trkpt lat="47.31312" lon="5.99883">
        <ele>319</ele>
        <time>2015-05-15T07:15:35Z</time>
      </trkpt>
      <trkpt lat="47.31314" lon="5.99873">
        <ele>319</ele>
        <time>2015-05-15T07:15:38Z</time>
      </trkpt>
      <trkpt lat="47.31316" lon="5.99865">
        <ele>319</ele>
        <time>2015-05-15T07:15:40Z</time>
      </trkpt>
      <trkpt lat="47.31318" lon="5.99858">
        <ele>320</ele>
        <time>2015-05-15T07:15:42Z</time>
      </trkpt>
      <trkpt lat="47.31316" lon="5.99852">
        <ele>320</ele>
        <time>2015-05-15T07:15:44Z</time>
      </trkpt>
      <trkpt lat="47.31316" lon="5.99841">
        <ele>320</ele>
        <time>2015-05-15T07:15:47Z</time>
      </trkpt>
      <trkpt lat="47.31323" lon="5.99835">
        <ele>320</ele>
        <time>2015-05-15T07:15:49Z</time>
      </trkpt>
      <trkpt lat="47.31328" lon="5.99828">
        <ele>320</ele>
        <time>2015-05-15T07:15:51Z</time>
      </trkpt>
      <trkpt lat="47.31332" lon="5.99823">
        <ele>321</ele>
        <time>2015-05-15T07:15:53Z</time>
      </trkpt>
      <trkpt lat="47.31337" lon="5.99812">
        <ele>322</ele>
        <time>2015-05-15T07:15:57Z</time>
      </trkpt>
      <trkpt lat="47.3134" lon="5.99802">
        <ele>322</ele>
        <time>2015-05-15T07:16:01Z</time>
      </trkpt>
      <trkpt lat="47.31343" lon="5.99791">
        <ele>323</ele>
        <time>2015-05-15T07:16:05Z</time>
      </trkpt>
      <trkpt lat="47.31357" lon="5.9978">
        <ele>324</ele>
        <time>2015-05-15T07:16:08Z</time>
      </trkpt>
      <trkpt lat="47.31361" lon="5.99774">
        <ele>324</ele>
        <time>2015-05-15T07:16:10Z</time>
      </trkpt>
      <trkpt lat="47.31364" lon="5.99768">
        <ele>324</ele>
        <time>2015-05-15T07:16:12Z</time>
      </trkpt>
      <trkpt lat="47.31369" lon="5.99763">
        <ele>324</ele>
        <time>2015-05-15T07:16:14Z</time>
      </trkpt>
      <trkpt lat="47.31375" lon="5.99753">
        <ele>324</ele>
        <time>2015-05-15T07:16:17Z</time>
      </trkpt>
      <trkpt lat="47.31378" lon="5.99748">
        <ele>324</ele>
        <time>2015-05-15T07:16:19Z</time>
      </trkpt>
      <trkpt lat="47.31381" lon="5.9974">
        <ele>324</ele>
        <time>2015-05-15T07:16:21Z</time>
      </trkpt>
      <trkpt lat="47.31384" lon="5.99733">
        <ele>324</ele>
        <time>2015-05-15T07:16:23Z</time>
      </trkpt>
      <trkpt lat="47.31386" lon="5.99727">
        <ele>325</ele>
        <time>2015-05-15T07:16:25Z</time>
      </trkpt>
      <trkpt lat="47.3139" lon="5.9972">
        <ele>325</ele>
        <time>2015-05-15T07:16:27Z</time>
      </trkpt>
      <trkpt lat="47.31391" lon="5.99712">
        <ele>325</ele>
        <time>2015-05-15T07:16:29Z</time>
      </trkpt>
      <trkpt lat="47.31394" lon="5.99699">
        <ele>326</ele>
        <time>2015-05-15T07:16:31Z</time>
      </trkpt>
      <trkpt lat="47.31397" lon="5.99691">
        <ele>326</ele>
        <time>2015-05-15T07:16:33Z</time>
      </trkpt>
      <trkpt lat="47.314" lon="5.99683">
        <ele>326</ele>
        <time>2015-05-15T07:16:35Z</time>
      </trkpt>
      <trkpt lat="47.31407" lon="5.99668">
        <ele>327</ele>
        <time>2015-05-15T07:16:38Z</time>
      </trkpt>
      <trkpt lat="47.31412" lon="5.99661">
        <ele>327</ele>
        <time>2015-05-15T07:16:40Z</time>
      </trkpt>
      <trkpt lat="47.31418" lon="5.9965">
        <ele>328</ele>
        <time>2015-05-15T07:16:44Z</time>
      </trkpt>
      <trkpt lat="47.31421" lon="5.9964">
        <ele>328</ele>
        <time>2015-05-15T07:16:47Z</time>
      </trkpt>
      <trkpt lat="47.31426" lon="5.99636">
        <ele>328</ele>
        <time>2015-05-15T07:16:49Z</time>
      </trkpt>
      <trkpt lat="47.31432" lon="5.99631">
        <ele>327</ele>
        <time>2015-05-15T07:16:51Z</time>
      </trkpt>
      <trkpt lat="47.31437" lon="5.99627">
        <ele>327</ele>
        <time>2015-05-15T07:16:53Z</time>
      </trkpt>
      <trkpt lat="47.31445" lon="5.99623">
        <ele>327</ele>
        <time>2015-05-15T07:16:55Z</time>
      </trkpt>
      <trkpt lat="47.3145" lon="5.99619">
        <ele>327</ele>
        <time>2015-05-15T07:16:57Z</time>
      </trkpt>
      <trkpt lat="47.31456" lon="5.99615">
        <ele>327</ele>
        <time>2015-05-15T07:16:59Z</time>
      </trkpt>
      <trkpt lat="47.31458" lon="5.99606">
        <ele>325</ele>
        <time>2015-05-15T07:17:01Z</time>
      </trkpt>
      <trkpt lat="47.31459" lon="5.99595">
        <ele>323</ele>
        <time>2015-05-15T07:17:03Z</time>
      </trkpt>
      <trkpt lat="47.31459" lon="5.99587">
        <ele>323</ele>
        <time>2015-05-15T07:17:06Z</time>
      </trkpt>
      <trkpt lat="47.31455" lon="5.99581">
        <ele>322</ele>
        <time>2015-05-15T07:17:08Z</time>
      </trkpt>
      <trkpt lat="47.31451" lon="5.99576">
        <ele>323</ele>
        <time>2015-05-15T07:17:10Z</time>
      </trkpt>
      <trkpt lat="47.31445" lon="5.99572">
        <ele>323</ele>
        <time>2015-05-15T07:17:12Z</time>
      </trkpt>
      <trkpt lat="47.31441" lon="5.99569">
        <ele>323</ele>
        <time>2015-05-15T07:17:14Z</time>
      </trkpt>
      <trkpt lat="47.31433" lon="5.99563">
        <ele>324</ele>
        <time>2015-05-15T07:17:17Z</time>
      </trkpt>
      <trkpt lat="47.31428" lon="5.9956">
        <ele>324</ele>
        <time>2015-05-15T07:17:19Z</time>
      </trkpt>
      <trkpt lat="47.3142" lon="5.99551">
        <ele>323</ele>
        <time>2015-05-15T07:17:23Z</time>
      </trkpt>
      <trkpt lat="47.31415" lon="5.99545">
        <ele>323</ele>
        <time>2015-05-15T07:17:25Z</time>
      </trkpt>
      <trkpt lat="47.31411" lon="5.99542">
        <ele>323</ele>
        <time>2015-05-15T07:17:27Z</time>
      </trkpt>
      <trkpt lat="47.31406" lon="5.99539">
        <ele>323</ele>
        <time>2015-05-15T07:17:29Z</time>
      </trkpt>
      <trkpt lat="47.314" lon="5.99538">
        <ele>323</ele>
        <time>2015-05-15T07:17:31Z</time>
      </trkpt>
      <trkpt lat="47.31395" lon="5.99535">
        <ele>323</ele>
        <time>2015-05-15T07:17:33Z</time>
      </trkpt>
      <trkpt lat="47.3139" lon="5.99528">
        <ele>323</ele>
        <time>2015-05-15T07:17:35Z</time>
      </trkpt>
      <trkpt lat="47.31384" lon="5.99522">
        <ele>324</ele>
        <time>2015-05-15T07:17:38Z</time>
      </trkpt>
      <trkpt lat="47.31379" lon="5.99518">
        <ele>324</ele>
        <time>2015-05-15T07:17:40Z</time>
      </trkpt>
      <trkpt lat="47.31371" lon="5.99513">
        <ele>324</ele>
        <time>2015-05-15T07:17:44Z</time>
      </trkpt>
      <trkpt lat="47.31365" lon="5.99507">
        <ele>324</ele>
        <time>2015-05-15T07:17:48Z</time>
      </trkpt>
      <trkpt lat="47.31359" lon="5.99502">
        <ele>324</ele>
        <time>2015-05-15T07:17:51Z</time>
      </trkpt>
      <trkpt lat="47.31355" lon="5.99498">
        <ele>324</ele>
        <time>2015-05-15T07:17:53Z</time>
      </trkpt>
      <trkpt lat="47.31347" lon="5.99494">
        <ele>325</ele>
        <time>2015-05-15T07:17:57Z</time>
      </trkpt>
      <trkpt lat="47.31342" lon="5.99492">
        <ele>325</ele>
        <time>2015-05-15T07:17:59Z</time>
      </trkpt>
      <trkpt lat="47.31337" lon="5.99491">
        <ele>325</ele>
        <time>2015-05-15T07:18:01Z</time>
      </trkpt>
      <trkpt lat="47.31332" lon="5.99489">
        <ele>325</ele>
        <time>2015-05-15T07:18:03Z</time>
      </trkpt>
      <trkpt lat="47.31326" lon="5.99488">
        <ele>326</ele>
        <time>2015-05-15T07:18:05Z</time>
      </trkpt>
      <trkpt lat="47.31318" lon="5.99488">
        <ele>325</ele>
        <time>2015-05-15T07:18:08Z</time>
      </trkpt>
      <trkpt lat="47.31312" lon="5.99487">
        <ele>325</ele>
        <time>2015-05-15T07:18:10Z</time>
      </trkpt>
      <trkpt lat="47.31304" lon="5.99484">
        <ele>326</ele>
        <time>2015-05-15T07:18:14Z</time>
      </trkpt>
      <trkpt lat="47.31299" lon="5.99483">
        <ele>326</ele>
        <time>2015-05-15T07:18:16Z</time>
      </trkpt>
      <trkpt lat="47.31292" lon="5.99483">
        <ele>326</ele>
        <time>2015-05-15T07:18:18Z</time>
      </trkpt>
      <trkpt lat="47.31287" lon="5.9948">
        <ele>326</ele>
        <time>2015-05-15T07:18:21Z</time>
      </trkpt>
      <trkpt lat="47.31282" lon="5.99476">
        <ele>326</ele>
        <time>2015-05-15T07:18:23Z</time>
      </trkpt>
      <trkpt lat="47.31278" lon="5.99472">
        <ele>326</ele>
        <time>2015-05-15T07:18:25Z</time>
      </trkpt>
      <trkpt lat="47.31274" lon="5.9947">
        <ele>326</ele>
        <time>2015-05-15T07:18:27Z</time>
      </trkpt>
      <trkpt lat="47.31269" lon="5.99468">
        <ele>327</ele>
        <time>2015-05-15T07:18:29Z</time>
      </trkpt>
      <trkpt lat="47.31263" lon="5.99465">
        <ele>327</ele>
        <time>2015-05-15T07:18:31Z</time>
      </trkpt>
      <trkpt lat="47.31258" lon="5.99462">
        <ele>327</ele>
        <time>2015-05-15T07:18:33Z</time>
      </trkpt>
      <trkpt lat="47.31253" lon="5.99459">
        <ele>327</ele>
        <time>2015-05-15T07:18:35Z</time>
      </trkpt>
      <trkpt lat="47.31245" lon="5.99454">
        <ele>327</ele>
        <time>2015-05-15T07:18:38Z</time>
      </trkpt>
      <trkpt lat="47.3124" lon="5.99451">
        <ele>328</ele>
        <time>2015-05-15T07:18:40Z</time>
      </trkpt>
      <trkpt lat="47.31231" lon="5.99448">
        <ele>328</ele>
        <time>2015-05-15T07:18:44Z</time>
      </trkpt>
      <trkpt lat="47.31228" lon="5.99444">
        <ele>328</ele>
        <time>2015-05-15T07:18:46Z</time>
      </trkpt>
      <trkpt lat="47.31225" lon="5.99436">
        <ele>327</ele>
        <time>2015-05-15T07:18:48Z</time>
      </trkpt>
      <trkpt lat="47.31226" lon="5.99426">
        <ele>326</ele>
        <time>2015-05-15T07:18:50Z</time>
      </trkpt>
      <trkpt lat="47.3122" lon="5.99418">
        <ele>326</ele>
        <time>2015-05-15T07:18:53Z</time>
      </trkpt>
      <trkpt lat="47.31212" lon="5.99413">
        <ele>326</ele>
        <time>2015-05-15T07:18:57Z</time>
      </trkpt>
      <trkpt lat="47.31207" lon="5.99411">
        <ele>326</ele>
        <time>2015-05-15T07:18:59Z</time>
      </trkpt>
      <trkpt lat="47.31201" lon="5.99409">
        <ele>326</ele>
        <time>2015-05-15T07:19:01Z</time>
      </trkpt>
      <trkpt lat="47.31196" lon="5.99406">
        <ele>327</ele>
        <time>2015-05-15T07:19:03Z</time>
      </trkpt>
      <trkpt lat="47.31191" lon="5.99402">
        <ele>327</ele>
        <time>2015-05-15T07:19:05Z</time>
      </trkpt>
      <trkpt lat="47.31183" lon="5.99397">
        <ele>327</ele>
        <time>2015-05-15T07:19:08Z</time>
      </trkpt>
      <trkpt lat="47.31178" lon="5.99393">
        <ele>327</ele>
        <time>2015-05-15T07:19:10Z</time>
      </trkpt>
      <trkpt lat="47.31172" lon="5.9939">
        <ele>327</ele>
        <time>2015-05-15T07:19:12Z</time>
      </trkpt>
      <trkpt lat="47.31167" lon="5.99388">
        <ele>327</ele>
        <time>2015-05-15T07:19:14Z</time>
      </trkpt>
      <trkpt lat="47.3116" lon="5.99383">
        <ele>328</ele>
        <time>2015-05-15T07:19:17Z</time>
      </trkpt>
      <trkpt lat="47.31155" lon="5.99381">
        <ele>327</ele>
        <time>2015-05-15T07:19:19Z</time>
      </trkpt>
      <trkpt lat="47.31149" lon="5.99378">
        <ele>328</ele>
        <time>2015-05-15T07:19:21Z</time>
      </trkpt>
      <trkpt lat="47.31144" lon="5.99376">
        <ele>328</ele>
        <time>2015-05-15T07:19:23Z</time>
      </trkpt>
      <trkpt lat="47.31138" lon="5.99373">
        <ele>327</ele>
        <time>2015-05-15T07:19:25Z</time>
      </trkpt>
      <trkpt lat="47.31133" lon="5.9937">
        <ele>327</ele>
        <time>2015-05-15T07:19:27Z</time>
      </trkpt>
      <trkpt lat="47.31128" lon="5.99368">
        <ele>328</ele>
        <time>2015-05-15T07:19:29Z</time>
      </trkpt>
      <trkpt lat="47.31122" lon="5.99365">
        <ele>328</ele>
        <time>2015-05-15T07:19:31Z</time>
      </trkpt>
      <trkpt lat="47.31117" lon="5.99363">
        <ele>328</ele>
        <time>2015-05-15T07:19:33Z</time>
      </trkpt>
      <trkpt lat="47.31111" lon="5.9936">
        <ele>328</ele>
        <time>2015-05-15T07:19:35Z</time>
      </trkpt>
      <trkpt lat="47.31103" lon="5.99356">
        <ele>328</ele>
        <time>2015-05-15T07:19:38Z</time>
      </trkpt>
      <trkpt lat="47.31098" lon="5.99354">
        <ele>328</ele>
        <time>2015-05-15T07:19:40Z</time>
      </trkpt>
      <trkpt lat="47.31093" lon="5.99351">
        <ele>328</ele>
        <time>2015-05-15T07:19:42Z</time>
      </trkpt>
      <trkpt lat="47.31088" lon="5.99348">
        <ele>328</ele>
        <time>2015-05-15T07:19:44Z</time>
      </trkpt>
      <trkpt lat="47.31083" lon="5.99345">
        <ele>328</ele>
        <time>2015-05-15T07:19:46Z</time>
      </trkpt>
      <trkpt lat="47.31079" lon="5.99343">
        <ele>328</ele>
        <time>2015-05-15T07:19:48Z</time>
      </trkpt>
      <trkpt lat="47.31073" lon="5.99341">
        <ele>328</ele>
        <time>2015-05-15T07:19:50Z</time>
      </trkpt>
      <trkpt lat="47.31066" lon="5.99337">
        <ele>328</ele>
        <time>2015-05-15T07:19:53Z</time>
      </trkpt>
      <trkpt lat="47.31062" lon="5.99336">
        <ele>327</ele>
        <time>2015-05-15T07:19:55Z</time>
      </trkpt>
      <trkpt lat="47.31052" lon="5.99331">
        <ele>327</ele>
        <time>2015-05-15T07:19:59Z</time>
      </trkpt>
      <trkpt lat="47.31047" lon="5.99328">
        <ele>327</ele>
        <time>2015-05-15T07:20:01Z</time>
      </trkpt>
      <trkpt lat="47.31043" lon="5.99326">
        <ele>327</ele>
        <time>2015-05-15T07:20:03Z</time>
      </trkpt>
      <trkpt lat="47.31038" lon="5.99323">
        <ele>326</ele>
        <time>2015-05-15T07:20:05Z</time>
      </trkpt>
      <trkpt lat="47.3103" lon="5.99318">
        <ele>326</ele>
        <time>2015-05-15T07:20:08Z</time>
      </trkpt>
      <trkpt lat="47.31026" lon="5.99316">
        <ele>326</ele>
        <time>2015-05-15T07:20:10Z</time>
      </trkpt>
      <trkpt lat="47.31022" lon="5.99312">
        <ele>325</ele>
        <time>2015-05-15T07:20:12Z</time>
      </trkpt>
      <trkpt lat="47.31018" lon="5.99309">
        <ele>325</ele>
        <time>2015-05-15T07:20:14Z</time>
      </trkpt>
      <trkpt lat="47.31013" lon="5.99306">
        <ele>325</ele>
        <time>2015-05-15T07:20:16Z</time>
      </trkpt>
      <trkpt lat="47.31006" lon="5.99302">
        <ele>324</ele>
        <time>2015-05-15T07:20:19Z</time>
      </trkpt>
      <trkpt lat="47.31001" lon="5.99299">
        <ele>324</ele>
        <time>2015-05-15T07:20:21Z</time>
      </trkpt>
      <trkpt lat="47.30996" lon="5.99296">
        <ele>324</ele>
        <time>2015-05-15T07:20:23Z</time>
      </trkpt>
      <trkpt lat="47.30992" lon="5.99292">
        <ele>324</ele>
        <time>2015-05-15T07:20:25Z</time>
      </trkpt>
      <trkpt lat="47.30988" lon="5.99289">
        <ele>324</ele>
        <time>2015-05-15T07:20:27Z</time>
      </trkpt>
      <trkpt lat="47.30983" lon="5.99286">
        <ele>324</ele>
        <time>2015-05-15T07:20:29Z</time>
      </trkpt>
      <trkpt lat="47.30978" lon="5.99284">
        <ele>323</ele>
        <time>2015-05-15T07:20:31Z</time>
      </trkpt>
      <trkpt lat="47.30969" lon="5.99277">
        <ele>323</ele>
        <time>2015-05-15T07:20:35Z</time>
      </trkpt>
      <trkpt lat="47.30962" lon="5.9927">
        <ele>324</ele>
        <time>2015-05-15T07:20:38Z</time>
      </trkpt>
      <trkpt lat="47.30956" lon="5.99265">
        <ele>324</ele>
        <time>2015-05-15T07:20:40Z</time>
      </trkpt>
      <trkpt lat="47.30952" lon="5.99257">
        <ele>323</ele>
        <time>2015-05-15T07:20:42Z</time>
      </trkpt>
      <trkpt lat="47.30948" lon="5.99251">
        <ele>323</ele>
        <time>2015-05-15T07:20:44Z</time>
      </trkpt>
      <trkpt lat="47.30944" lon="5.99243">
        <ele>322</ele>
        <time>2015-05-15T07:20:46Z</time>
      </trkpt>
      <trkpt lat="47.30942" lon="5.99235">
        <ele>322</ele>
        <time>2015-05-15T07:20:48Z</time>
      </trkpt>
      <trkpt lat="47.30941" lon="5.99227">
        <ele>321</ele>
        <time>2015-05-15T07:20:50Z</time>
      </trkpt>
      <trkpt lat="47.3094" lon="5.99214">
        <ele>320</ele>
        <time>2015-05-15T07:20:53Z</time>
      </trkpt>
      <trkpt lat="47.30939" lon="5.99206">
        <ele>320</ele>
        <time>2015-05-15T07:20:55Z</time>
      </trkpt>
      <trkpt lat="47.30941" lon="5.992">
        <ele>319</ele>
        <time>2015-05-15T07:20:57Z</time>
      </trkpt>
      <trkpt lat="47.30942" lon="5.99192">
        <ele>318</ele>
        <time>2015-05-15T07:20:59Z</time>
      </trkpt>
      <trkpt lat="47.30942" lon="5.99184">
        <ele>318</ele>
        <time>2015-05-15T07:21:01Z</time>
      </trkpt>
      <trkpt lat="47.30941" lon="5.99176">
        <ele>317</ele>
        <time>2015-05-15T07:21:03Z</time>
      </trkpt>
      <trkpt lat="47.30942" lon="5.99168">
        <ele>317</ele>
        <time>2015-05-15T07:21:05Z</time>
      </trkpt>
      <trkpt lat="47.30943" lon="5.99155">
        <ele>316</ele>
        <time>2015-05-15T07:21:08Z</time>
      </trkpt>
      <trkpt lat="47.30944" lon="5.99146">
        <ele>316</ele>
        <time>2015-05-15T07:21:10Z</time>
      </trkpt>
      <trkpt lat="47.30945" lon="5.99136">
        <ele>316</ele>
        <time>2015-05-15T07:21:12Z</time>
      </trkpt>
      <trkpt lat="47.30946" lon="5.99126">
        <ele>315</ele>
        <time>2015-05-15T07:21:14Z</time>
      </trkpt>
      <trkpt lat="47.30947" lon="5.99116">
        <ele>315</ele>
        <time>2015-05-15T07:21:16Z</time>
      </trkpt>
      <trkpt lat="47.30949" lon="5.991">
        <ele>315</ele>
        <time>2015-05-15T07:21:19Z</time>
      </trkpt>
      <trkpt lat="47.30951" lon="5.99092">
        <ele>315</ele>
        <time>2015-05-15T07:21:21Z</time>
      </trkpt>
      <trkpt lat="47.30952" lon="5.99085">
        <ele>314</ele>
        <time>2015-05-15T07:21:23Z</time>
      </trkpt>
      <trkpt lat="47.30955" lon="5.99077">
        <ele>314</ele>
        <time>2015-05-15T07:21:25Z</time>
      </trkpt>
      <trkpt lat="47.30958" lon="5.99069">
        <ele>313</ele>
        <time>2015-05-15T07:21:27Z</time>
      </trkpt>
      <trkpt lat="47.30959" lon="5.9906">
        <ele>313</ele>
        <time>2015-05-15T07:21:29Z</time>
      </trkpt>
      <trkpt lat="47.30961" lon="5.99051">
        <ele>312</ele>
        <time>2015-05-15T07:21:31Z</time>
      </trkpt>
      <trkpt lat="47.30962" lon="5.99042">
        <ele>312</ele>
        <time>2015-05-15T07:21:33Z</time>
      </trkpt>
      <trkpt lat="47.30963" lon="5.99033">
        <ele>311</ele>
        <time>2015-05-15T07:21:35Z</time>
      </trkpt>
      <trkpt lat="47.30969" lon="5.99024">
        <ele>310</ele>
        <time>2015-05-15T07:21:38Z</time>
      </trkpt>
      <trkpt lat="47.30973" lon="5.99018">
        <ele>309</ele>
        <time>2015-05-15T07:21:40Z</time>
      </trkpt>
      <trkpt lat="47.30976" lon="5.9901">
        <ele>309</ele>
        <time>2015-05-15T07:21:42Z</time>
      </trkpt>
      <trkpt lat="47.30979" lon="5.99004">
        <ele>308</ele>
        <time>2015-05-15T07:21:44Z</time>
      </trkpt>
      <trkpt lat="47.30982" lon="5.98996">
        <ele>307</ele>
        <time>2015-05-15T07:21:47Z</time>
      </trkpt>
      <trkpt lat="47.30985" lon="5.98988">
        <ele>307</ele>
        <time>2015-05-15T07:21:49Z</time>
      </trkpt>
      <trkpt lat="47.30988" lon="5.9898">
        <ele>306</ele>
        <time>2015-05-15T07:21:51Z</time>
      </trkpt>
      <trkpt lat="47.3099" lon="5.98971">
        <ele>306</ele>
        <time>2015-05-15T07:21:53Z</time>
      </trkpt>
      <trkpt lat="47.30993" lon="5.98965">
        <ele>305</ele>
        <time>2015-05-15T07:21:55Z</time>
      </trkpt>
      <trkpt lat="47.30996" lon="5.98958">
        <ele>305</ele>
        <time>2015-05-15T07:21:57Z</time>
      </trkpt>
      <trkpt lat="47.30999" lon="5.98951">
        <ele>304</ele>
        <time>2015-05-15T07:21:59Z</time>
      </trkpt>
      <trkpt lat="47.31003" lon="5.98945">
        <ele>304</ele>
        <time>2015-05-15T07:22:01Z</time>
      </trkpt>
      <trkpt lat="47.31004" lon="5.98937">
        <ele>304</ele>
        <time>2015-05-15T07:22:03Z</time>
      </trkpt>
      <trkpt lat="47.31004" lon="5.98928">
        <ele>303</ele>
        <time>2015-05-15T07:22:05Z</time>
      </trkpt>
      <trkpt lat="47.31007" lon="5.98918">
        <ele>302</ele>
        <time>2015-05-15T07:22:08Z</time>
      </trkpt>
      <trkpt lat="47.31011" lon="5.98913">
        <ele>301</ele>
        <time>2015-05-15T07:22:10Z</time>
      </trkpt>
      <trkpt lat="47.31015" lon="5.98903">
        <ele>299</ele>
        <time>2015-05-15T07:22:14Z</time>
      </trkpt>
      <trkpt lat="47.31017" lon="5.98895">
        <ele>299</ele>
        <time>2015-05-15T07:22:17Z</time>
      </trkpt>
      <trkpt lat="47.3102" lon="5.9889">
        <ele>298</ele>
        <time>2015-05-15T07:22:21Z</time>
      </trkpt>
      <trkpt lat="47.31023" lon="5.98884">
        <ele>297</ele>
        <time>2015-05-15T07:22:23Z</time>
      </trkpt>
      <trkpt lat="47.31027" lon="5.9888">
        <ele>297</ele>
        <time>2015-05-15T07:22:25Z</time>
      </trkpt>
      <trkpt lat="47.3103" lon="5.98873">
        <ele>296</ele>
        <time>2015-05-15T07:22:27Z</time>
      </trkpt>
      <trkpt lat="47.31034" lon="5.98864">
        <ele>295</ele>
        <time>2015-05-15T07:22:29Z</time>
      </trkpt>
      <trkpt lat="47.31038" lon="5.98856">
        <ele>295</ele>
        <time>2015-05-15T07:22:31Z</time>
      </trkpt>
      <trkpt lat="47.31042" lon="5.98847">
        <ele>294</ele>
        <time>2015-05-15T07:22:33Z</time>
      </trkpt>
      <trkpt lat="47.31047" lon="5.98839">
        <ele>293</ele>
        <time>2015-05-15T07:22:35Z</time>
      </trkpt>
      <trkpt lat="47.31051" lon="5.98832">
        <ele>293</ele>
        <time>2015-05-15T07:22:37Z</time>
      </trkpt>
      <trkpt lat="47.31056" lon="5.98817">
        <ele>293</ele>
        <time>2015-05-15T07:22:40Z</time>
      </trkpt>
      <trkpt lat="47.31059" lon="5.98807">
        <ele>292</ele>
        <time>2015-05-15T07:22:42Z</time>
      </trkpt>
      <trkpt lat="47.31061" lon="5.98798">
        <ele>291</ele>
        <time>2015-05-15T07:22:44Z</time>
      </trkpt>
      <trkpt lat="47.31066" lon="5.9879">
        <ele>290</ele>
        <time>2015-05-15T07:22:46Z</time>
      </trkpt>
      <trkpt lat="47.31068" lon="5.98782">
        <ele>289</ele>
        <time>2015-05-15T07:22:48Z</time>
      </trkpt>
      <trkpt lat="47.31072" lon="5.98774">
        <ele>288</ele>
        <time>2015-05-15T07:22:50Z</time>
      </trkpt>
      <trkpt lat="47.31074" lon="5.98761">
        <ele>287</ele>
        <time>2015-05-15T07:22:53Z</time>
      </trkpt>
      <trkpt lat="47.31076" lon="5.98754">
        <ele>286</ele>
        <time>2015-05-15T07:22:55Z</time>
      </trkpt>
      <trkpt lat="47.31078" lon="5.98745">
        <ele>285</ele>
        <time>2015-05-15T07:22:57Z</time>
      </trkpt>
      <trkpt lat="47.3108" lon="5.98739">
        <ele>284</ele>
        <time>2015-05-15T07:22:59Z</time>
      </trkpt>
      <trkpt lat="47.31084" lon="5.98735">
        <ele>284</ele>
        <time>2015-05-15T07:23:01Z</time>
      </trkpt>
      <trkpt lat="47.31089" lon="5.98728">
        <ele>283</ele>
        <time>2015-05-15T07:23:03Z</time>
      </trkpt>
      <trkpt lat="47.31093" lon="5.98722">
        <ele>283</ele>
        <time>2015-05-15T07:23:05Z</time>
      </trkpt>
      <trkpt lat="47.31098" lon="5.98717">
        <ele>282</ele>
        <time>2015-05-15T07:23:07Z</time>
      </trkpt>
      <trkpt lat="47.31105" lon="5.9871">
        <ele>281</ele>
        <time>2015-05-15T07:23:10Z</time>
      </trkpt>
      <trkpt lat="47.3111" lon="5.98702">
        <ele>280</ele>
        <time>2015-05-15T07:23:12Z</time>
      </trkpt>
      <trkpt lat="47.31114" lon="5.98695">
        <ele>280</ele>
        <time>2015-05-15T07:23:14Z</time>
      </trkpt>
      <trkpt lat="47.31117" lon="5.98688">
        <ele>279</ele>
        <time>2015-05-15T07:23:16Z</time>
      </trkpt>
      <trkpt lat="47.31121" lon="5.98683">
        <ele>279</ele>
        <time>2015-05-15T07:23:18Z</time>
      </trkpt>
      <trkpt lat="47.31125" lon="5.98675">
        <ele>278</ele>
        <time>2015-05-15T07:23:20Z</time>
      </trkpt>
      <trkpt lat="47.31131" lon="5.98665">
        <ele>277</ele>
        <time>2015-05-15T07:23:23Z</time>
      </trkpt>
      <trkpt lat="47.31134" lon="5.98659">
        <ele>277</ele>
        <time>2015-05-15T07:23:25Z</time>
      </trkpt>
      <trkpt lat="47.31138" lon="5.98653">
        <ele>276</ele>
        <time>2015-05-15T07:23:27Z</time>
      </trkpt>
      <trkpt lat="47.31141" lon="5.98645">
        <ele>276</ele>
        <time>2015-05-15T07:23:29Z</time>
      </trkpt>
      <trkpt lat="47.31142" lon="5.98638">
        <ele>275</ele>
        <time>2015-05-15T07:23:31Z</time>
      </trkpt>
      <trkpt lat="47.31141" lon="5.9863">
        <ele>274</ele>
        <time>2015-05-15T07:23:33Z</time>
      </trkpt>
      <trkpt lat="47.31141" lon="5.98619">
        <ele>273</ele>
        <time>2015-05-15T07:23:35Z</time>
      </trkpt>
      <trkpt lat="47.31142" lon="5.98607">
        <ele>272</ele>
        <time>2015-05-15T07:23:37Z</time>
      </trkpt>
      <trkpt lat="47.31144" lon="5.98591">
        <ele>271</ele>
        <time>2015-05-15T07:23:40Z</time>
      </trkpt>
      <trkpt lat="47.31146" lon="5.98584">
        <ele>270</ele>
        <time>2015-05-15T07:23:42Z</time>
      </trkpt>
      <trkpt lat="47.31149" lon="5.98576">
        <ele>270</ele>
        <time>2015-05-15T07:23:44Z</time>
      </trkpt>
      <trkpt lat="47.31149" lon="5.98569">
        <ele>269</ele>
        <time>2015-05-15T07:23:46Z</time>
      </trkpt>
      <trkpt lat="47.31149" lon="5.98555">
        <ele>267</ele>
        <time>2015-05-15T07:23:49Z</time>
      </trkpt>
      <trkpt lat="47.31148" lon="5.98546">
        <ele>266</ele>
        <time>2015-05-15T07:23:51Z</time>
      </trkpt>
      <trkpt lat="47.31148" lon="5.98537">
        <ele>265</ele>
        <time>2015-05-15T07:23:53Z</time>
      </trkpt>
      <trkpt lat="47.31148" lon="5.98527">
        <ele>264</ele>
        <time>2015-05-15T07:23:55Z</time>
      </trkpt>
      <trkpt lat="47.31147" lon="5.98519">
        <ele>263</ele>
        <time>2015-05-15T07:23:57Z</time>
      </trkpt>
      <trkpt lat="47.31148" lon="5.98509">
        <ele>262</ele>
        <time>2015-05-15T07:23:59Z</time>
      </trkpt>
      <trkpt lat="47.31149" lon="5.985">
        <ele>260</ele>
        <time>2015-05-15T07:24:01Z</time>
      </trkpt>
      <trkpt lat="47.3115" lon="5.9849">
        <ele>259</ele>
        <time>2015-05-15T07:24:03Z</time>
      </trkpt>
      <trkpt lat="47.31151" lon="5.9848">
        <ele>258</ele>
        <time>2015-05-15T07:24:05Z</time>
      </trkpt>
      <trkpt lat="47.31152" lon="5.98472">
        <ele>257</ele>
        <time>2015-05-15T07:24:07Z</time>
      </trkpt>
      <trkpt lat="47.31153" lon="5.98458">
        <ele>256</ele>
        <time>2015-05-15T07:24:10Z</time>
      </trkpt>
      <trkpt lat="47.31152" lon="5.98447">
        <ele>256</ele>
        <time>2015-05-15T07:24:12Z</time>
      </trkpt>
      <trkpt lat="47.31152" lon="5.98436">
        <ele>256</ele>
        <time>2015-05-15T07:24:14Z</time>
      </trkpt>
      <trkpt lat="47.31151" lon="5.98427">
        <ele>255</ele>
        <time>2015-05-15T07:24:16Z</time>
      </trkpt>
      <trkpt lat="47.3115" lon="5.98418">
        <ele>255</ele>
        <time>2015-05-15T07:24:18Z</time>
      </trkpt>
      <trkpt lat="47.31148" lon="5.9841">
        <ele>255</ele>
        <time>2015-05-15T07:24:20Z</time>
      </trkpt>
      <trkpt lat="47.31144" lon="5.98397">
        <ele>254</ele>
        <time>2015-05-15T07:24:23Z</time>
      </trkpt>
      <trkpt lat="47.31142" lon="5.98389">
        <ele>253</ele>
        <time>2015-05-15T07:24:25Z</time>
      </trkpt>
      <trkpt lat="47.31141" lon="5.98381">
        <ele>252</ele>
        <time>2015-05-15T07:24:27Z</time>
      </trkpt>
      <trkpt lat="47.31139" lon="5.98372">
        <ele>251</ele>
        <time>2015-05-15T07:24:29Z</time>
      </trkpt>
      <trkpt lat="47.31138" lon="5.98363">
        <ele>250</ele>
        <time>2015-05-15T07:24:31Z</time>
      </trkpt>
      <trkpt lat="47.31137" lon="5.98354">
        <ele>248</ele>
        <time>2015-05-15T07:24:33Z</time>
      </trkpt>
      <trkpt lat="47.31135" lon="5.98346">
        <ele>247</ele>
        <time>2015-05-15T07:24:35Z</time>
      </trkpt>
      <trkpt lat="47.31134" lon="5.98338">
        <ele>246</ele>
        <time>2015-05-15T07:24:37Z</time>
      </trkpt>
      <trkpt lat="47.31134" lon="5.98326">
        <ele>244</ele>
        <time>2015-05-15T07:24:40Z</time>
      </trkpt>
      <trkpt lat="47.31133" lon="5.98319">
        <ele>243</ele>
        <time>2015-05-15T07:24:42Z</time>
      </trkpt>
      <trkpt lat="47.31134" lon="5.98312">
        <ele>242</ele>
        <time>2015-05-15T07:24:44Z</time>
      </trkpt>
      <trkpt lat="47.31134" lon="5.98303">
        <ele>241</ele>
        <time>2015-05-15T07:24:46Z</time>
      </trkpt>
      <trkpt lat="47.31134" lon="5.9829">
        <ele>239</ele>
        <time>2015-05-15T07:24:49Z</time>
      </trkpt>
      <trkpt lat="47.31136" lon="5.98284">
        <ele>239</ele>
        <time>2015-05-15T07:24:51Z</time>
      </trkpt>
      <trkpt lat="47.31139" lon="5.98276">
        <ele>238</ele>
        <time>2015-05-15T07:24:53Z</time>
      </trkpt>
      <trkpt lat="47.31143" lon="5.9827">
        <ele>237</ele>
        <time>2015-05-15T07:24:55Z</time>
      </trkpt>
      <trkpt lat="47.31147" lon="5.98265">
        <ele>236</ele>
        <time>2015-05-15T07:24:57Z</time>
      </trkpt>
      <trkpt lat="47.31151" lon="5.98262">
        <ele>235</ele>
        <time>2015-05-15T07:24:59Z</time>
      </trkpt>
      <trkpt lat="47.31155" lon="5.98257">
        <ele>235</ele>
        <time>2015-05-15T07:25:01Z</time>
      </trkpt>
      <trkpt lat="47.31159" lon="5.98252">
        <ele>234</ele>
        <time>2015-05-15T07:25:03Z</time>
      </trkpt>
      <trkpt lat="47.31163" lon="5.98248">
        <ele>233</ele>
        <time>2015-05-15T07:25:05Z</time>
      </trkpt>
      <trkpt lat="47.31167" lon="5.98244">
        <ele>232</ele>
        <time>2015-05-15T07:25:07Z</time>
      </trkpt>
      <trkpt lat="47.31174" lon="5.98238">
        <ele>231</ele>
        <time>2015-05-15T07:25:10Z</time>
      </trkpt>
      <trkpt lat="47.31179" lon="5.98235">
        <ele>230</ele>
        <time>2015-05-15T07:25:12Z</time>
      </trkpt>
      <trkpt lat="47.31184" lon="5.9823">
        <ele>230</ele>
        <time>2015-05-15T07:25:14Z</time>
      </trkpt>
      <trkpt lat="47.31189" lon="5.98224">
        <ele>229</ele>
        <time>2015-05-15T07:25:16Z</time>
      </trkpt>
      <trkpt lat="47.31193" lon="5.98219">
        <ele>228</ele>
        <time>2015-05-15T07:25:18Z</time>
      </trkpt>
      <trkpt lat="47.31201" lon="5.98211">
        <ele>228</ele>
        <time>2015-05-15T07:25:21Z</time>
      </trkpt>
      <trkpt lat="47.31205" lon="5.98205">
        <ele>227</ele>
        <time>2015-05-15T07:25:23Z</time>
      </trkpt>
      <trkpt lat="47.31208" lon="5.98198">
        <ele>227</ele>
        <time>2015-05-15T07:25:25Z</time>
      </trkpt>
      <trkpt lat="47.31213" lon="5.98192">
        <ele>227</ele>
        <time>2015-05-15T07:25:27Z</time>
      </trkpt>
      <trkpt lat="47.31216" lon="5.98186">
        <ele>226</ele>
        <time>2015-05-15T07:25:29Z</time>
      </trkpt>
      <trkpt lat="47.3122" lon="5.98179">
        <ele>225</ele>
        <time>2015-05-15T07:25:31Z</time>
      </trkpt>
      <trkpt lat="47.31222" lon="5.98172">
        <ele>225</ele>
        <time>2015-05-15T07:25:33Z</time>
      </trkpt>
      <trkpt lat="47.31225" lon="5.98166">
        <ele>224</ele>
        <time>2015-05-15T07:25:35Z</time>
      </trkpt>
      <trkpt lat="47.31228" lon="5.9816">
        <ele>223</ele>
        <time>2015-05-15T07:25:38Z</time>
      </trkpt>
      <trkpt lat="47.31234" lon="5.98155">
        <ele>223</ele>
        <time>2015-05-15T07:25:40Z</time>
      </trkpt>
      <trkpt lat="47.31237" lon="5.98151">
        <ele>222</ele>
        <time>2015-05-15T07:25:42Z</time>
      </trkpt>
      <trkpt lat="47.31244" lon="5.98145">
        <ele>221</ele>
        <time>2015-05-15T07:25:46Z</time>
      </trkpt>
      <trkpt lat="47.31248" lon="5.98133">
        <ele>219</ele>
        <time>2015-05-15T07:25:51Z</time>
      </trkpt>
      <trkpt lat="47.31249" lon="5.98121">
        <ele>217</ele>
        <time>2015-05-15T07:25:55Z</time>
      </trkpt>
      <trkpt lat="47.3125" lon="5.98114">
        <ele>216</ele>
        <time>2015-05-15T07:25:57Z</time>
      </trkpt>
      <trkpt lat="47.3125" lon="5.98103">
        <ele>214</ele>
        <time>2015-05-15T07:26:01Z</time>
      </trkpt>
      <trkpt lat="47.3125" lon="5.98096">
        <ele>213</ele>
        <time>2015-05-15T07:26:03Z</time>
      </trkpt>
      <trkpt lat="47.31249" lon="5.98089">
        <ele>212</ele>
        <time>2015-05-15T07:26:05Z</time>
      </trkpt>
      <trkpt lat="47.31249" lon="5.98079">
        <ele>211</ele>
        <time>2015-05-15T07:26:08Z</time>
      </trkpt>
      <trkpt lat="47.31249" lon="5.98071">
        <ele>210</ele>
        <time>2015-05-15T07:26:10Z</time>
      </trkpt>
      <trkpt lat="47.31248" lon="5.98064">
        <ele>209</ele>
        <time>2015-05-15T07:26:12Z</time>
      </trkpt>
      <trkpt lat="47.31248" lon="5.98056">
        <ele>208</ele>
        <time>2015-05-15T07:26:14Z</time>
      </trkpt>
      <trkpt lat="47.31248" lon="5.98047">
        <ele>208</ele>
        <time>2015-05-15T07:26:16Z</time>
      </trkpt>
      <trkpt lat="47.3125" lon="5.98039">
        <ele>207</ele>
        <time>2015-05-15T07:26:18Z</time>
      </trkpt>
      <trkpt lat="47.31253" lon="5.98027">
        <ele>205</ele>
        <time>2015-05-15T07:26:21Z</time>
      </trkpt>
      <trkpt lat="47.31255" lon="5.98021">
        <ele>205</ele>
        <time>2015-05-15T07:26:23Z</time>
      </trkpt>
      <trkpt lat="47.31259" lon="5.98013">
        <ele>204</ele>
        <time>2015-05-15T07:26:25Z</time>
      </trkpt>
      <trkpt lat="47.31263" lon="5.98005">
        <ele>204</ele>
        <time>2015-05-15T07:26:27Z</time>
      </trkpt>
      <trkpt lat="47.31268" lon="5.97997">
        <ele>203</ele>
        <time>2015-05-15T07:26:29Z</time>
      </trkpt>
      <trkpt lat="47.31273" lon="5.97988">
        <ele>203</ele>
        <time>2015-05-15T07:26:31Z</time>
      </trkpt>
      <trkpt lat="47.31276" lon="5.97979">
        <ele>202</ele>
        <time>2015-05-15T07:26:33Z</time>
      </trkpt>
      <trkpt lat="47.31283" lon="5.97972">
        <ele>202</ele>
        <time>2015-05-15T07:26:35Z</time>
      </trkpt>
      <trkpt lat="47.31289" lon="5.97959">
        <ele>201</ele>
        <time>2015-05-15T07:26:38Z</time>
      </trkpt>
      <trkpt lat="47.31293" lon="5.97953">
        <ele>201</ele>
        <time>2015-05-15T07:26:40Z</time>
      </trkpt>
      <trkpt lat="47.31298" lon="5.97948">
        <ele>200</ele>
        <time>2015-05-15T07:26:42Z</time>
      </trkpt>
      <trkpt lat="47.31303" lon="5.97941">
        <ele>199</ele>
        <time>2015-05-15T07:26:44Z</time>
      </trkpt>
      <trkpt lat="47.31307" lon="5.97932">
        <ele>199</ele>
        <time>2015-05-15T07:26:46Z</time>
      </trkpt>
      <trkpt lat="47.31311" lon="5.97925">
        <ele>198</ele>
        <time>2015-05-15T07:26:48Z</time>
      </trkpt>
      <trkpt lat="47.31316" lon="5.97912">
        <ele>197</ele>
        <time>2015-05-15T07:26:51Z</time>
      </trkpt>
      <trkpt lat="47.3132" lon="5.97906">
        <ele>197</ele>
        <time>2015-05-15T07:26:53Z</time>
      </trkpt>
      <trkpt lat="47.31323" lon="5.97898">
        <ele>196</ele>
        <time>2015-05-15T07:26:55Z</time>
      </trkpt>
      <trkpt lat="47.31326" lon="5.97893">
        <ele>196</ele>
        <time>2015-05-15T07:26:57Z</time>
      </trkpt>
      <trkpt lat="47.31329" lon="5.97886">
        <ele>195</ele>
        <time>2015-05-15T07:26:59Z</time>
      </trkpt>
      <trkpt lat="47.31332" lon="5.9788">
        <ele>195</ele>
        <time>2015-05-15T07:27:01Z</time>
      </trkpt>
      <trkpt lat="47.31337" lon="5.97873">
        <ele>194</ele>
        <time>2015-05-15T07:27:03Z</time>
      </trkpt>
      <trkpt lat="47.31341" lon="5.97867">
        <ele>194</ele>
        <time>2015-05-15T07:27:05Z</time>
      </trkpt>
      <trkpt lat="47.31347" lon="5.97862">
        <ele>193</ele>
        <time>2015-05-15T07:27:07Z</time>
      </trkpt>
      <trkpt lat="47.3135" lon="5.97856">
        <ele>193</ele>
        <time>2015-05-15T07:27:08Z</time>
      </trkpt>
      <trkpt lat="47.31355" lon="5.97848">
        <ele>193</ele>
        <time>2015-05-15T07:27:10Z</time>
      </trkpt>
      <trkpt lat="47.3136" lon="5.97842">
        <ele>192</ele>
        <time>2015-05-15T07:27:12Z</time>
      </trkpt>
      <trkpt lat="47.31364" lon="5.97837">
        <ele>192</ele>
        <time>2015-05-15T07:27:14Z</time>
      </trkpt>
      <trkpt lat="47.3137" lon="5.9783">
        <ele>191</ele>
        <time>2015-05-15T07:27:16Z</time>
      </trkpt>
      <trkpt lat="47.31376" lon="5.97819">
        <ele>191</ele>
        <time>2015-05-15T07:27:18Z</time>
      </trkpt>
      <trkpt lat="47.3138" lon="5.97811">
        <ele>191</ele>
        <time>2015-05-15T07:27:20Z</time>
      </trkpt>
      <trkpt lat="47.31385" lon="5.978">
        <ele>191</ele>
        <time>2015-05-15T07:27:23Z</time>
      </trkpt>
      <trkpt lat="47.31389" lon="5.97796">
        <ele>191</ele>
        <time>2015-05-15T07:27:25Z</time>
      </trkpt>
      <trkpt lat="47.31393" lon="5.97792">
        <ele>190</ele>
        <time>2015-05-15T07:27:27Z</time>
      </trkpt>
      <trkpt lat="47.31397" lon="5.97787">
        <ele>189</ele>
        <time>2015-05-15T07:27:29Z</time>
      </trkpt>
      <trkpt lat="47.31401" lon="5.97783">
        <ele>189</ele>
        <time>2015-05-15T07:27:31Z</time>
      </trkpt>
      <trkpt lat="47.31405" lon="5.97778">
        <ele>189</ele>
        <time>2015-05-15T07:27:33Z</time>
      </trkpt>
      <trkpt lat="47.3141" lon="5.97774">
        <ele>189</ele>
        <time>2015-05-15T07:27:35Z</time>
      </trkpt>
      <trkpt lat="47.31418" lon="5.97767">
        <ele>189</ele>
        <time>2015-05-15T07:27:38Z</time>
      </trkpt>
      <trkpt lat="47.31423" lon="5.97762">
        <ele>189</ele>
        <time>2015-05-15T07:27:40Z</time>
      </trkpt>
      <trkpt lat="47.31429" lon="5.97758">
        <ele>189</ele>
        <time>2015-05-15T07:27:42Z</time>
      </trkpt>
      <trkpt lat="47.31436" lon="5.97754">
        <ele>188</ele>
        <time>2015-05-15T07:27:44Z</time>
      </trkpt>
      <trkpt lat="47.3144" lon="5.97751">
        <ele>188</ele>
        <time>2015-05-15T07:27:46Z</time>
      </trkpt>
      <trkpt lat="47.31445" lon="5.97747">
        <ele>188</ele>
        <time>2015-05-15T07:27:48Z</time>
      </trkpt>
      <trkpt lat="47.31448" lon="5.97739">
        <ele>195</ele>
        <time>2015-05-15T07:27:53Z</time>
      </trkpt>
      <trkpt lat="47.31451" lon="5.97727">
        <ele>199</ele>
        <time>2015-05-15T07:27:57Z</time>
      </trkpt>
      <trkpt lat="47.31455" lon="5.9772">
        <ele>201</ele>
        <time>2015-05-15T07:27:59Z</time>
      </trkpt>
      <trkpt lat="47.31457" lon="5.97711">
        <ele>201</ele>
        <time>2015-05-15T07:28:01Z</time>
      </trkpt>
      <trkpt lat="47.31461" lon="5.97704">
        <ele>202</ele>
        <time>2015-05-15T07:28:03Z</time>
      </trkpt>
      <trkpt lat="47.31466" lon="5.97701">
        <ele>202</ele>
        <time>2015-05-15T07:28:05Z</time>
      </trkpt>
      <trkpt lat="47.31471" lon="5.97699">
        <ele>202</ele>
        <time>2015-05-15T07:28:07Z</time>
      </trkpt>
      <trkpt lat="47.31479" lon="5.97697">
        <ele>203</ele>
        <time>2015-05-15T07:28:10Z</time>
      </trkpt>
      <trkpt lat="47.31485" lon="5.97695">
        <ele>203</ele>
        <time>2015-05-15T07:28:12Z</time>
      </trkpt>
      <trkpt lat="47.3149" lon="5.97693">
        <ele>204</ele>
        <time>2015-05-15T07:28:14Z</time>
      </trkpt>
      <trkpt lat="47.31495" lon="5.97691">
        <ele>204</ele>
        <time>2015-05-15T07:28:16Z</time>
      </trkpt>
      <trkpt lat="47.315" lon="5.97689">
        <ele>203</ele>
        <time>2015-05-15T07:28:18Z</time>
      </trkpt>
      <trkpt lat="47.31505" lon="5.97686">
        <ele>203</ele>
        <time>2015-05-15T07:28:20Z</time>
      </trkpt>
      <trkpt lat="47.31512" lon="5.97682">
        <ele>203</ele>
        <time>2015-05-15T07:28:23Z</time>
      </trkpt>
      <trkpt lat="47.31516" lon="5.97679">
        <ele>203</ele>
        <time>2015-05-15T07:28:25Z</time>
      </trkpt>
      <trkpt lat="47.31513" lon="5.97656">
        <ele>210</ele>
        <time>2015-05-15T07:28:27Z</time>
      </trkpt>
      <trkpt lat="47.31517" lon="5.97651">
        <ele>211</ele>
        <time>2015-05-15T07:28:29Z</time>
      </trkpt>
      <trkpt lat="47.31522" lon="5.97646">
        <ele>212</ele>
        <time>2015-05-15T07:28:31Z</time>
      </trkpt>
      <trkpt lat="47.31528" lon="5.97644">
        <ele>212</ele>
        <time>2015-05-15T07:28:33Z</time>
      </trkpt>
      <trkpt lat="47.31534" lon="5.97641">
        <ele>213</ele>
        <time>2015-05-15T07:28:35Z</time>
      </trkpt>
      <trkpt lat="47.3154" lon="5.97641">
        <ele>213</ele>
        <time>2015-05-15T07:28:37Z</time>
      </trkpt>
      <trkpt lat="47.31548" lon="5.97638">
        <ele>214</ele>
        <time>2015-05-15T07:28:40Z</time>
      </trkpt>
      <trkpt lat="47.31554" lon="5.97637">
        <ele>215</ele>
        <time>2015-05-15T07:28:42Z</time>
      </trkpt>
      <trkpt lat="47.31562" lon="5.97635">
        <ele>215</ele>
        <time>2015-05-15T07:28:44Z</time>
      </trkpt>
      <trkpt lat="47.31568" lon="5.97634">
        <ele>216</ele>
        <time>2015-05-15T07:28:46Z</time>
      </trkpt>
      <trkpt lat="47.31574" lon="5.97633">
        <ele>219</ele>
        <time>2015-05-15T07:28:48Z</time>
      </trkpt>
      <trkpt lat="47.31579" lon="5.97632">
        <ele>220</ele>
        <time>2015-05-15T07:28:50Z</time>
      </trkpt>
      <trkpt lat="47.31588" lon="5.9763">
        <ele>220</ele>
        <time>2015-05-15T07:28:53Z</time>
      </trkpt>
      <trkpt lat="47.31594" lon="5.97628">
        <ele>221</ele>
        <time>2015-05-15T07:28:55Z</time>
      </trkpt>
      <trkpt lat="47.31602" lon="5.97625">
        <ele>219</ele>
        <time>2015-05-15T07:28:59Z</time>
      </trkpt>
      <trkpt lat="47.31611" lon="5.97624">
        <ele>220</ele>
        <time>2015-05-15T07:29:03Z</time>
      </trkpt>
      <trkpt lat="47.31616" lon="5.97623">
        <ele>220</ele>
        <time>2015-05-15T07:29:05Z</time>
      </trkpt>
      <trkpt lat="47.31621" lon="5.97621">
        <ele>220</ele>
        <time>2015-05-15T07:29:07Z</time>
      </trkpt>
      <trkpt lat="47.31627" lon="5.97619">
        <ele>221</ele>
        <time>2015-05-15T07:29:10Z</time>
      </trkpt>
      <trkpt lat="47.31632" lon="5.97618">
        <ele>221</ele>
        <time>2015-05-15T07:29:12Z</time>
      </trkpt>
      <trkpt lat="47.31638" lon="5.97616">
        <ele>221</ele>
        <time>2015-05-15T07:29:14Z</time>
      </trkpt>
      <trkpt lat="47.31644" lon="5.97615">
        <ele>221</ele>
        <time>2015-05-15T07:29:16Z</time>
      </trkpt>
      <trkpt lat="47.31649" lon="5.97613">
        <ele>222</ele>
        <time>2015-05-15T07:29:18Z</time>
      </trkpt>
      <trkpt lat="47.31656" lon="5.9761">
        <ele>223</ele>
        <time>2015-05-15T07:29:21Z</time>
      </trkpt>
      <trkpt lat="47.31661" lon="5.97607">
        <ele>224</ele>
        <time>2015-05-15T07:29:23Z</time>
      </trkpt>
      <trkpt lat="47.31668" lon="5.97605">
        <ele>224</ele>
        <time>2015-05-15T07:29:25Z</time>
      </trkpt>
      <trkpt lat="47.31673" lon="5.97605">
        <ele>225</ele>
        <time>2015-05-15T07:29:27Z</time>
      </trkpt>
      <trkpt lat="47.31679" lon="5.97604">
        <ele>225</ele>
        <time>2015-05-15T07:29:29Z</time>
      </trkpt>
      <trkpt lat="47.31687" lon="5.97603">
        <ele>225</ele>
        <time>2015-05-15T07:29:31Z</time>
      </trkpt>
      <trkpt lat="47.31692" lon="5.97601">
        <ele>225</ele>
        <time>2015-05-15T07:29:33Z</time>
      </trkpt>
      <trkpt lat="47.31698" lon="5.976">
        <ele>225</ele>
        <time>2015-05-15T07:29:35Z</time>
      </trkpt>
      <trkpt lat="47.31706" lon="5.97599">
        <ele>224</ele>
        <time>2015-05-15T07:29:37Z</time>
      </trkpt>
      <trkpt lat="47.31711" lon="5.97598">
        <ele>224</ele>
        <time>2015-05-15T07:29:39Z</time>
      </trkpt>
      <trkpt lat="47.31717" lon="5.97596">
        <ele>223</ele>
        <time>2015-05-15T07:29:42Z</time>
      </trkpt>
      <trkpt lat="47.31722" lon="5.97595">
        <ele>223</ele>
        <time>2015-05-15T07:29:44Z</time>
      </trkpt>
      <trkpt lat="47.31728" lon="5.97593">
        <ele>223</ele>
        <time>2015-05-15T07:29:46Z</time>
      </trkpt>
      <trkpt lat="47.31739" lon="5.97589">
        <ele>223</ele>
        <time>2015-05-15T07:29:50Z</time>
      </trkpt>
      <trkpt lat="47.31747" lon="5.97592">
        <ele>223</ele>
        <time>2015-05-15T07:29:53Z</time>
      </trkpt>
      <trkpt lat="47.31754" lon="5.97594">
        <ele>223</ele>
        <time>2015-05-15T07:29:55Z</time>
      </trkpt>
      <trkpt lat="47.3176" lon="5.97595">
        <ele>223</ele>
        <time>2015-05-15T07:29:57Z</time>
      </trkpt>
      <trkpt lat="47.31768" lon="5.976">
        <ele>223</ele>
        <time>2015-05-15T07:30:01Z</time>
      </trkpt>
      <trkpt lat="47.31771" lon="5.97606">
        <ele>223</ele>
        <time>2015-05-15T07:30:03Z</time>
      </trkpt>
      <trkpt lat="47.31775" lon="5.97612">
        <ele>223</ele>
        <time>2015-05-15T07:30:05Z</time>
      </trkpt>
      <trkpt lat="47.31784" lon="5.97612">
        <ele>225</ele>
        <time>2015-05-15T07:30:07Z</time>
      </trkpt>
      <trkpt lat="47.31787" lon="5.97617">
        <ele>224</ele>
        <time>2015-05-15T07:30:10Z</time>
      </trkpt>
      <trkpt lat="47.3179" lon="5.97625">
        <ele>223</ele>
        <time>2015-05-15T07:30:14Z</time>
      </trkpt>
      <trkpt lat="47.31789" lon="5.97639">
        <ele>222</ele>
        <time>2015-05-15T07:30:18Z</time>
      </trkpt>
      <trkpt lat="47.31788" lon="5.97646">
        <ele>222</ele>
        <time>2015-05-15T07:30:20Z</time>
      </trkpt>
      <trkpt lat="47.31786" lon="5.97657">
        <ele>222</ele>
        <time>2015-05-15T07:30:23Z</time>
      </trkpt>
      <trkpt lat="47.31784" lon="5.97664">
        <ele>222</ele>
        <time>2015-05-15T07:30:25Z</time>
      </trkpt>
      <trkpt lat="47.31783" lon="5.97674">
        <ele>222</ele>
        <time>2015-05-15T07:30:27Z</time>
      </trkpt>
      <trkpt lat="47.31781" lon="5.97681">
        <ele>222</ele>
        <time>2015-05-15T07:30:29Z</time>
      </trkpt>
      <trkpt lat="47.3178" lon="5.97689">
        <ele>222</ele>
        <time>2015-05-15T07:30:31Z</time>
      </trkpt>
      <trkpt lat="47.31779" lon="5.97696">
        <ele>222</ele>
        <time>2015-05-15T07:30:33Z</time>
      </trkpt>
      <trkpt lat="47.31775" lon="5.97706">
        <ele>222</ele>
        <time>2015-05-15T07:30:35Z</time>
      </trkpt>
      <trkpt lat="47.31773" lon="5.97713">
        <ele>222</ele>
        <time>2015-05-15T07:30:37Z</time>
      </trkpt>
      <trkpt lat="47.31772" lon="5.9772">
        <ele>222</ele>
        <time>2015-05-15T07:30:39Z</time>
      </trkpt>
      <trkpt lat="47.31768" lon="5.97729">
        <ele>221</ele>
        <time>2015-05-15T07:30:42Z</time>
      </trkpt>
      <trkpt lat="47.31769" lon="5.97737">
        <ele>221</ele>
        <time>2015-05-15T07:30:44Z</time>
      </trkpt>
      <trkpt lat="47.31768" lon="5.97746">
        <ele>221</ele>
        <time>2015-05-15T07:30:46Z</time>
      </trkpt>
      <trkpt lat="47.31768" lon="5.97752">
        <ele>220</ele>
        <time>2015-05-15T07:30:48Z</time>
      </trkpt>
      <trkpt lat="47.31767" lon="5.97759">
        <ele>220</ele>
        <time>2015-05-15T07:30:50Z</time>
      </trkpt>
      <trkpt lat="47.31765" lon="5.97771">
        <ele>220</ele>
        <time>2015-05-15T07:30:53Z</time>
      </trkpt>
      <trkpt lat="47.31761" lon="5.97781">
        <ele>220</ele>
        <time>2015-05-15T07:30:55Z</time>
      </trkpt>
      <trkpt lat="47.31759" lon="5.97791">
        <ele>220</ele>
        <time>2015-05-15T07:30:57Z</time>
      </trkpt>
      <trkpt lat="47.31758" lon="5.97801">
        <ele>220</ele>
        <time>2015-05-15T07:30:59Z</time>
      </trkpt>
      <trkpt lat="47.31757" lon="5.97809">
        <ele>220</ele>
        <time>2015-05-15T07:31:01Z</time>
      </trkpt>
      <trkpt lat="47.31754" lon="5.97819">
        <ele>220</ele>
        <time>2015-05-15T07:31:03Z</time>
      </trkpt>
      <trkpt lat="47.31754" lon="5.97828">
        <ele>219</ele>
        <time>2015-05-15T07:31:05Z</time>
      </trkpt>
      <trkpt lat="47.31752" lon="5.97836">
        <ele>219</ele>
        <time>2015-05-15T07:31:07Z</time>
      </trkpt>
      <trkpt lat="47.31752" lon="5.97849">
        <ele>218</ele>
        <time>2015-05-15T07:31:10Z</time>
      </trkpt>
      <trkpt lat="47.31752" lon="5.97858">
        <ele>217</ele>
        <time>2015-05-15T07:31:12Z</time>
      </trkpt>
      <trkpt lat="47.31753" lon="5.97868">
        <ele>218</ele>
        <time>2015-05-15T07:31:14Z</time>
      </trkpt>
      <trkpt lat="47.31753" lon="5.97876">
        <ele>217</ele>
        <time>2015-05-15T07:31:16Z</time>
      </trkpt>
      <trkpt lat="47.31755" lon="5.97885">
        <ele>217</ele>
        <time>2015-05-15T07:31:18Z</time>
      </trkpt>
      <trkpt lat="47.31757" lon="5.97894">
        <ele>216</ele>
        <time>2015-05-15T07:31:20Z</time>
      </trkpt>
      <trkpt lat="47.3176" lon="5.97906">
        <ele>217</ele>
        <time>2015-05-15T07:31:23Z</time>
      </trkpt>
      <trkpt lat="47.31762" lon="5.97915">
        <ele>217</ele>
        <time>2015-05-15T07:31:25Z</time>
      </trkpt>
      <trkpt lat="47.31765" lon="5.97923">
        <ele>218</ele>
        <time>2015-05-15T07:31:27Z</time>
      </trkpt>
      <trkpt lat="47.31768" lon="5.97932">
        <ele>219</ele>
        <time>2015-05-15T07:31:29Z</time>
      </trkpt>
      <trkpt lat="47.31772" lon="5.97939">
        <ele>219</ele>
        <time>2015-05-15T07:31:31Z</time>
      </trkpt>
      <trkpt lat="47.31775" lon="5.97948">
        <ele>218</ele>
        <time>2015-05-15T07:31:33Z</time>
      </trkpt>
      <trkpt lat="47.31777" lon="5.97955">
        <ele>218</ele>
        <time>2015-05-15T07:31:35Z</time>
      </trkpt>
      <trkpt lat="47.3178" lon="5.97964">
        <ele>218</ele>
        <time>2015-05-15T07:31:37Z</time>
      </trkpt>
      <trkpt lat="47.31782" lon="5.97972">
        <ele>218</ele>
        <time>2015-05-15T07:31:39Z</time>
      </trkpt>
      <trkpt lat="47.31784" lon="5.97984">
        <ele>218</ele>
        <time>2015-05-15T07:31:42Z</time>
      </trkpt>
      <trkpt lat="47.31785" lon="5.97992">
        <ele>218</ele>
        <time>2015-05-15T07:31:44Z</time>
      </trkpt>
      <trkpt lat="47.31786" lon="5.98001">
        <ele>218</ele>
        <time>2015-05-15T07:31:46Z</time>
      </trkpt>
      <trkpt lat="47.31786" lon="5.98013">
        <ele>217</ele>
        <time>2015-05-15T07:31:50Z</time>
      </trkpt>
      <trkpt lat="47.31785" lon="5.98022">
        <ele>217</ele>
        <time>2015-05-15T07:31:53Z</time>
      </trkpt>
      <trkpt lat="47.31784" lon="5.98031">
        <ele>217</ele>
        <time>2015-05-15T07:31:55Z</time>
      </trkpt>
      <trkpt lat="47.31784" lon="5.9804">
        <ele>217</ele>
        <time>2015-05-15T07:31:57Z</time>
      </trkpt>
      <trkpt lat="47.31784" lon="5.98049">
        <ele>216</ele>
        <time>2015-05-15T07:31:59Z</time>
      </trkpt>
      <trkpt lat="47.31781" lon="5.98058">
        <ele>217</ele>
        <time>2015-05-15T07:32:01Z</time>
      </trkpt>
      <trkpt lat="47.3178" lon="5.98068">
        <ele>217</ele>
        <time>2015-05-15T07:32:03Z</time>
      </trkpt>
      <trkpt lat="47.31778" lon="5.98078">
        <ele>217</ele>
        <time>2015-05-15T07:32:05Z</time>
      </trkpt>
      <trkpt lat="47.31776" lon="5.98087">
        <ele>217</ele>
        <time>2015-05-15T07:32:07Z</time>
      </trkpt>
      <trkpt lat="47.31775" lon="5.98096">
        <ele>217</ele>
        <time>2015-05-15T07:32:09Z</time>
      </trkpt>
      <trkpt lat="47.31771" lon="5.98109">
        <ele>217</ele>
        <time>2015-05-15T07:32:12Z</time>
      </trkpt>
      <trkpt lat="47.31768" lon="5.98119">
        <ele>218</ele>
        <time>2015-05-15T07:32:14Z</time>
      </trkpt>
      <trkpt lat="47.31764" lon="5.98125">
        <ele>218</ele>
        <time>2015-05-15T07:32:16Z</time>
      </trkpt>
      <trkpt lat="47.3176" lon="5.98133">
        <ele>218</ele>
        <time>2015-05-15T07:32:18Z</time>
      </trkpt>
      <trkpt lat="47.31756" lon="5.9814">
        <ele>218</ele>
        <time>2015-05-15T07:32:20Z</time>
      </trkpt>
      <trkpt lat="47.31755" lon="5.98153">
        <ele>218</ele>
        <time>2015-05-15T07:32:23Z</time>
      </trkpt>
      <trkpt lat="47.3176" lon="5.98159">
        <ele>218</ele>
        <time>2015-05-15T07:32:25Z</time>
      </trkpt>
      <trkpt lat="47.31756" lon="5.98173">
        <ele>218</ele>
        <time>2015-05-15T07:32:29Z</time>
      </trkpt>
      <trkpt lat="47.31754" lon="5.98181">
        <ele>218</ele>
        <time>2015-05-15T07:32:31Z</time>
      </trkpt>
      <trkpt lat="47.31751" lon="5.98188">
        <ele>218</ele>
        <time>2015-05-15T07:32:33Z</time>
      </trkpt>
      <trkpt lat="47.3175" lon="5.98195">
        <ele>218</ele>
        <time>2015-05-15T07:32:35Z</time>
      </trkpt>
      <trkpt lat="47.31748" lon="5.98203">
        <ele>218</ele>
        <time>2015-05-15T07:32:37Z</time>
      </trkpt>
      <trkpt lat="47.31747" lon="5.98211">
        <ele>218</ele>
        <time>2015-05-15T07:32:39Z</time>
      </trkpt>
      <trkpt lat="47.31745" lon="5.98224">
        <ele>218</ele>
        <time>2015-05-15T07:32:42Z</time>
      </trkpt>
      <trkpt lat="47.31744" lon="5.98234">
        <ele>218</ele>
        <time>2015-05-15T07:32:44Z</time>
      </trkpt>
      <trkpt lat="47.31743" lon="5.98245">
        <ele>218</ele>
        <time>2015-05-15T07:32:46Z</time>
      </trkpt>
      <trkpt lat="47.31744" lon="5.98253">
        <ele>218</ele>
        <time>2015-05-15T07:32:48Z</time>
      </trkpt>
      <trkpt lat="47.31744" lon="5.98262">
        <ele>218</ele>
        <time>2015-05-15T07:32:50Z</time>
      </trkpt>
      <trkpt lat="47.31746" lon="5.98273">
        <ele>217</ele>
        <time>2015-05-15T07:32:53Z</time>
      </trkpt>
      <trkpt lat="47.31747" lon="5.9828">
        <ele>217</ele>
        <time>2015-05-15T07:32:55Z</time>
      </trkpt>
      <trkpt lat="47.3175" lon="5.98287">
        <ele>217</ele>
        <time>2015-05-15T07:32:57Z</time>
      </trkpt>
      <trkpt lat="47.31752" lon="5.98293">
        <ele>217</ele>
        <time>2015-05-15T07:32:59Z</time>
      </trkpt>
      <trkpt lat="47.31754" lon="5.983">
        <ele>217</ele>
        <time>2015-05-15T07:33:01Z</time>
      </trkpt>
      <trkpt lat="47.31756" lon="5.98307">
        <ele>217</ele>
        <time>2015-05-15T07:33:03Z</time>
      </trkpt>
      <trkpt lat="47.31759" lon="5.98315">
        <ele>217</ele>
        <time>2015-05-15T07:33:05Z</time>
      </trkpt>
      <trkpt lat="47.31761" lon="5.98322">
        <ele>216</ele>
        <time>2015-05-15T07:33:07Z</time>
      </trkpt>
      <trkpt lat="47.31763" lon="5.9833">
        <ele>216</ele>
        <time>2015-05-15T07:33:09Z</time>
      </trkpt>
      <trkpt lat="47.31767" lon="5.98341">
        <ele>217</ele>
        <time>2015-05-15T07:33:12Z</time>
      </trkpt>
      <trkpt lat="47.3177" lon="5.98348">
        <ele>217</ele>
        <time>2015-05-15T07:33:14Z</time>
      </trkpt>
      <trkpt lat="47.31773" lon="5.98356">
        <ele>217</ele>
        <time>2015-05-15T07:33:16Z</time>
      </trkpt>
      <trkpt lat="47.31776" lon="5.98365">
        <ele>217</ele>
        <time>2015-05-15T07:33:18Z</time>
      </trkpt>
      <trkpt lat="47.31778" lon="5.98371">
        <ele>217</ele>
        <time>2015-05-15T07:33:20Z</time>
      </trkpt>
      <trkpt lat="47.31782" lon="5.98382">
        <ele>217</ele>
        <time>2015-05-15T07:33:23Z</time>
      </trkpt>
      <trkpt lat="47.31785" lon="5.98388">
        <ele>217</ele>
        <time>2015-05-15T07:33:25Z</time>
      </trkpt>
      <trkpt lat="47.31788" lon="5.98394">
        <ele>216</ele>
        <time>2015-05-15T07:33:27Z</time>
      </trkpt>
      <trkpt lat="47.31791" lon="5.98402">
        <ele>216</ele>
        <time>2015-05-15T07:33:29Z</time>
      </trkpt>
      <trkpt lat="47.31794" lon="5.98409">
        <ele>216</ele>
        <time>2015-05-15T07:33:31Z</time>
      </trkpt>
      <trkpt lat="47.31797" lon="5.98418">
        <ele>216</ele>
        <time>2015-05-15T07:33:33Z</time>
      </trkpt>
      <trkpt lat="47.31799" lon="5.98425">
        <ele>216</ele>
        <time>2015-05-15T07:33:35Z</time>
      </trkpt>
      <trkpt lat="47.31802" lon="5.98432">
        <ele>216</ele>
        <time>2015-05-15T07:33:37Z</time>
      </trkpt>
      <trkpt lat="47.31805" lon="5.98437">
        <ele>216</ele>
        <time>2015-05-15T07:33:39Z</time>
      </trkpt>
      <trkpt lat="47.3181" lon="5.98444">
        <ele>216</ele>
        <time>2015-05-15T07:33:42Z</time>
      </trkpt>
      <trkpt lat="47.31814" lon="5.98448">
        <ele>217</ele>
        <time>2015-05-15T07:33:44Z</time>
      </trkpt>
      <trkpt lat="47.31818" lon="5.98453">
        <ele>217</ele>
        <time>2015-05-15T07:33:46Z</time>
      </trkpt>
      <trkpt lat="47.31822" lon="5.98456">
        <ele>217</ele>
        <time>2015-05-15T07:33:48Z</time>
      </trkpt>
      <trkpt lat="47.31826" lon="5.98461">
        <ele>218</ele>
        <time>2015-05-15T07:33:50Z</time>
      </trkpt>
      <trkpt lat="47.31833" lon="5.98463">
        <ele>219</ele>
        <time>2015-05-15T07:33:53Z</time>
      </trkpt>
      <trkpt lat="47.31837" lon="5.98467">
        <ele>220</ele>
        <time>2015-05-15T07:33:55Z</time>
      </trkpt>
      <trkpt lat="47.31841" lon="5.98474">
        <ele>221</ele>
        <time>2015-05-15T07:33:57Z</time>
      </trkpt>
      <trkpt lat="47.31845" lon="5.9848">
        <ele>223</ele>
        <time>2015-05-15T07:33:59Z</time>
      </trkpt>
      <trkpt lat="47.31848" lon="5.98487">
        <ele>224</ele>
        <time>2015-05-15T07:34:01Z</time>
      </trkpt>
      <trkpt lat="47.31853" lon="5.98495">
        <ele>225</ele>
        <time>2015-05-15T07:34:03Z</time>
      </trkpt>
      <trkpt lat="47.31857" lon="5.98501">
        <ele>226</ele>
        <time>2015-05-15T07:34:05Z</time>
      </trkpt>
      <trkpt lat="47.3186" lon="5.98506">
        <ele>227</ele>
        <time>2015-05-15T07:34:07Z</time>
      </trkpt>
      <trkpt lat="47.31864" lon="5.98512">
        <ele>227</ele>
        <time>2015-05-15T07:34:09Z</time>
      </trkpt>
      <trkpt lat="47.31867" lon="5.98522">
        <ele>228</ele>
        <time>2015-05-15T07:34:12Z</time>
      </trkpt>
      <trkpt lat="47.31871" lon="5.98528">
        <ele>229</ele>
        <time>2015-05-15T07:34:14Z</time>
      </trkpt>
      <trkpt lat="47.31875" lon="5.98539">
        <ele>230</ele>
        <time>2015-05-15T07:34:18Z</time>
      </trkpt>
      <trkpt lat="47.31878" lon="5.98545">
        <ele>231</ele>
        <time>2015-05-15T07:34:20Z</time>
      </trkpt>
      <trkpt lat="47.31884" lon="5.98554">
        <ele>232</ele>
        <time>2015-05-15T07:34:23Z</time>
      </trkpt>
      <trkpt lat="47.31888" lon="5.9856">
        <ele>232</ele>
        <time>2015-05-15T07:34:25Z</time>
      </trkpt>
      <trkpt lat="47.31891" lon="5.98567">
        <ele>233</ele>
        <time>2015-05-15T07:34:27Z</time>
      </trkpt>
      <trkpt lat="47.31893" lon="5.98575">
        <ele>233</ele>
        <time>2015-05-15T07:34:29Z</time>
      </trkpt>
      <trkpt lat="47.31896" lon="5.98581">
        <ele>234</ele>
        <time>2015-05-15T07:34:31Z</time>
      </trkpt>
      <trkpt lat="47.31899" lon="5.98587">
        <ele>234</ele>
        <time>2015-05-15T07:34:33Z</time>
      </trkpt>
      <trkpt lat="47.31903" lon="5.98593">
        <ele>234</ele>
        <time>2015-05-15T07:34:35Z</time>
      </trkpt>
      <trkpt lat="47.31906" lon="5.98599">
        <ele>234</ele>
        <time>2015-05-15T07:34:37Z</time>
      </trkpt>
      <trkpt lat="47.3191" lon="5.98607">
        <ele>235</ele>
        <time>2015-05-15T07:34:40Z</time>
      </trkpt>
      <trkpt lat="47.31912" lon="5.98613">
        <ele>236</ele>
        <time>2015-05-15T07:34:42Z</time>
      </trkpt>
      <trkpt lat="47.31913" lon="5.9862">
        <ele>236</ele>
        <time>2015-05-15T07:34:44Z</time>
      </trkpt>
      <trkpt lat="47.31916" lon="5.98627">
        <ele>236</ele>
        <time>2015-05-15T07:34:46Z</time>
      </trkpt>
      <trkpt lat="47.31918" lon="5.98635">
        <ele>236</ele>
        <time>2015-05-15T07:34:48Z</time>
      </trkpt>
      <trkpt lat="47.3192" lon="5.98645">
        <ele>237</ele>
        <time>2015-05-15T07:34:51Z</time>
      </trkpt>
      <trkpt lat="47.31923" lon="5.98653">
        <ele>237</ele>
        <time>2015-05-15T07:34:53Z</time>
      </trkpt>
      <trkpt lat="47.31924" lon="5.98662">
        <ele>237</ele>
        <time>2015-05-15T07:34:55Z</time>
      </trkpt>
      <trkpt lat="47.31926" lon="5.98672">
        <ele>237</ele>
        <time>2015-05-15T07:34:57Z</time>
      </trkpt>
      <trkpt lat="47.31929" lon="5.9868">
        <ele>237</ele>
        <time>2015-05-15T07:34:59Z</time>
      </trkpt>
      <trkpt lat="47.31931" lon="5.98688">
        <ele>238</ele>
        <time>2015-05-15T07:35:01Z</time>
      </trkpt>
      <trkpt lat="47.31933" lon="5.98696">
        <ele>238</ele>
        <time>2015-05-15T07:35:03Z</time>
      </trkpt>
      <trkpt lat="47.31936" lon="5.98704">
        <ele>238</ele>
        <time>2015-05-15T07:35:05Z</time>
      </trkpt>
      <trkpt lat="47.31938" lon="5.98712">
        <ele>238</ele>
        <time>2015-05-15T07:35:07Z</time>
      </trkpt>
      <trkpt lat="47.31941" lon="5.98722">
        <ele>239</ele>
        <time>2015-05-15T07:35:09Z</time>
      </trkpt>
      <trkpt lat="47.31945" lon="5.98733">
        <ele>239</ele>
        <time>2015-05-15T07:35:12Z</time>
      </trkpt>
      <trkpt lat="47.31948" lon="5.98741">
        <ele>240</ele>
        <time>2015-05-15T07:35:14Z</time>
      </trkpt>
      <trkpt lat="47.31951" lon="5.98749">
        <ele>240</ele>
        <time>2015-05-15T07:35:16Z</time>
      </trkpt>
      <trkpt lat="47.31953" lon="5.98756">
        <ele>240</ele>
        <time>2015-05-15T07:35:18Z</time>
      </trkpt>
      <trkpt lat="47.31956" lon="5.98763">
        <ele>240</ele>
        <time>2015-05-15T07:35:20Z</time>
      </trkpt>
      <trkpt lat="47.31961" lon="5.98775">
        <ele>239</ele>
        <time>2015-05-15T07:35:23Z</time>
      </trkpt>
      <trkpt lat="47.31964" lon="5.98782">
        <ele>239</ele>
        <time>2015-05-15T07:35:25Z</time>
      </trkpt>
      <trkpt lat="47.31966" lon="5.98789">
        <ele>238</ele>
        <time>2015-05-15T07:35:27Z</time>
      </trkpt>
      <trkpt lat="47.31968" lon="5.98797">
        <ele>238</ele>
        <time>2015-05-15T07:35:29Z</time>
      </trkpt>
      <trkpt lat="47.3197" lon="5.98804">
        <ele>237</ele>
        <time>2015-05-15T07:35:31Z</time>
      </trkpt>
      <trkpt lat="47.31973" lon="5.9881">
        <ele>237</ele>
        <time>2015-05-15T07:35:33Z</time>
      </trkpt>
      <trkpt lat="47.31974" lon="5.98817">
        <ele>237</ele>
        <time>2015-05-15T07:35:35Z</time>
      </trkpt>
      <trkpt lat="47.31979" lon="5.98829">
        <ele>236</ele>
        <time>2015-05-15T07:35:39Z</time>
      </trkpt>
      <trkpt lat="47.31982" lon="5.9884">
        <ele>236</ele>
        <time>2015-05-15T07:35:42Z</time>
      </trkpt>
      <trkpt lat="47.31986" lon="5.98847">
        <ele>236</ele>
        <time>2015-05-15T07:35:44Z</time>
      </trkpt>
      <trkpt lat="47.31988" lon="5.98854">
        <ele>236</ele>
        <time>2015-05-15T07:35:46Z</time>
      </trkpt>
      <trkpt lat="47.31994" lon="5.98865">
        <ele>235</ele>
        <time>2015-05-15T07:35:50Z</time>
      </trkpt>
      <trkpt lat="47.31996" lon="5.98875">
        <ele>235</ele>
        <time>2015-05-15T07:35:53Z</time>
      </trkpt>
      <trkpt lat="47.32" lon="5.98882">
        <ele>235</ele>
        <time>2015-05-15T07:35:55Z</time>
      </trkpt>
      <trkpt lat="47.32003" lon="5.98889">
        <ele>235</ele>
        <time>2015-05-15T07:35:57Z</time>
      </trkpt>
      <trkpt lat="47.32006" lon="5.98896">
        <ele>235</ele>
        <time>2015-05-15T07:35:59Z</time>
      </trkpt>
      <trkpt lat="47.3201" lon="5.98903">
        <ele>235</ele>
        <time>2015-05-15T07:36:01Z</time>
      </trkpt>
      <trkpt lat="47.32012" lon="5.9891">
        <ele>235</ele>
        <time>2015-05-15T07:36:03Z</time>
      </trkpt>
      <trkpt lat="47.32016" lon="5.98917">
        <ele>235</ele>
        <time>2015-05-15T07:36:05Z</time>
      </trkpt>
      <trkpt lat="47.3202" lon="5.98924">
        <ele>236</ele>
        <time>2015-05-15T07:36:07Z</time>
      </trkpt>
      <trkpt lat="47.32023" lon="5.9893">
        <ele>236</ele>
        <time>2015-05-15T07:36:09Z</time>
      </trkpt>
      <trkpt lat="47.32027" lon="5.98939">
        <ele>236</ele>
        <time>2015-05-15T07:36:12Z</time>
      </trkpt>
      <trkpt lat="47.32029" lon="5.98945">
        <ele>237</ele>
        <time>2015-05-15T07:36:14Z</time>
      </trkpt>
      <trkpt lat="47.32033" lon="5.98956">
        <ele>237</ele>
        <time>2015-05-15T07:36:18Z</time>
      </trkpt>
      <trkpt lat="47.32035" lon="5.98964">
        <ele>237</ele>
        <time>2015-05-15T07:36:21Z</time>
      </trkpt>
      <trkpt lat="47.32037" lon="5.98972">
        <ele>237</ele>
        <time>2015-05-15T07:36:23Z</time>
      </trkpt>
      <trkpt lat="47.32039" lon="5.98977">
        <ele>237</ele>
        <time>2015-05-15T07:36:25Z</time>
      </trkpt>
      <trkpt lat="47.32044" lon="5.98989">
        <ele>236</ele>
        <time>2015-05-15T07:36:29Z</time>
      </trkpt>
      <trkpt lat="47.32047" lon="5.98996">
        <ele>235</ele>
        <time>2015-05-15T07:36:31Z</time>
      </trkpt>
      <trkpt lat="47.3205" lon="5.99003">
        <ele>235</ele>
        <time>2015-05-15T07:36:33Z</time>
      </trkpt>
      <trkpt lat="47.32054" lon="5.9901">
        <ele>234</ele>
        <time>2015-05-15T07:36:35Z</time>
      </trkpt>
      <trkpt lat="47.32058" lon="5.99017">
        <ele>234</ele>
        <time>2015-05-15T07:36:37Z</time>
      </trkpt>
      <trkpt lat="47.32062" lon="5.99024">
        <ele>234</ele>
        <time>2015-05-15T07:36:39Z</time>
      </trkpt>
      <trkpt lat="47.32066" lon="5.99035">
        <ele>233</ele>
        <time>2015-05-15T07:36:42Z</time>
      </trkpt>
      <trkpt lat="47.32069" lon="5.99041">
        <ele>233</ele>
        <time>2015-05-15T07:36:44Z</time>
      </trkpt>
      <trkpt lat="47.32072" lon="5.99047">
        <ele>233</ele>
        <time>2015-05-15T07:36:46Z</time>
      </trkpt>
      <trkpt lat="47.32077" lon="5.99055">
        <ele>233</ele>
        <time>2015-05-15T07:36:48Z</time>
      </trkpt>
      <trkpt lat="47.32079" lon="5.99062">
        <ele>233</ele>
        <time>2015-05-15T07:36:50Z</time>
      </trkpt>
      <trkpt lat="47.32084" lon="5.99071">
        <ele>232</ele>
        <time>2015-05-15T07:36:53Z</time>
      </trkpt>
      <trkpt lat="47.32087" lon="5.99078">
        <ele>232</ele>
        <time>2015-05-15T07:36:55Z</time>
      </trkpt>
      <trkpt lat="47.32089" lon="5.99084">
        <ele>232</ele>
        <time>2015-05-15T07:36:57Z</time>
      </trkpt>
      <trkpt lat="47.32092" lon="5.9909">
        <ele>232</ele>
        <time>2015-05-15T07:36:59Z</time>
      </trkpt>
      <trkpt lat="47.32094" lon="5.99097">
        <ele>231</ele>
        <time>2015-05-15T07:37:01Z</time>
      </trkpt>
      <trkpt lat="47.32097" lon="5.99104">
        <ele>230</ele>
        <time>2015-05-15T07:37:03Z</time>
      </trkpt>
      <trkpt lat="47.321" lon="5.99111">
        <ele>230</ele>
        <time>2015-05-15T07:37:05Z</time>
      </trkpt>
      <trkpt lat="47.32101" lon="5.99117">
        <ele>229</ele>
        <time>2015-05-15T07:37:07Z</time>
      </trkpt>
      <trkpt lat="47.32103" lon="5.99124">
        <ele>229</ele>
        <time>2015-05-15T07:37:09Z</time>
      </trkpt>
      <trkpt lat="47.32106" lon="5.99136">
        <ele>227</ele>
        <time>2015-05-15T07:37:12Z</time>
      </trkpt>
      <trkpt lat="47.32108" lon="5.99142">
        <ele>227</ele>
        <time>2015-05-15T07:37:14Z</time>
      </trkpt>
      <trkpt lat="47.3211" lon="5.9915">
        <ele>226</ele>
        <time>2015-05-15T07:37:16Z</time>
      </trkpt>
      <trkpt lat="47.32113" lon="5.99158">
        <ele>226</ele>
        <time>2015-05-15T07:37:18Z</time>
      </trkpt>
      <trkpt lat="47.32115" lon="5.99165">
        <ele>225</ele>
        <time>2015-05-15T07:37:20Z</time>
      </trkpt>
      <trkpt lat="47.32122" lon="5.99176">
        <ele>224</ele>
        <time>2015-05-15T07:37:23Z</time>
      </trkpt>
      <trkpt lat="47.32124" lon="5.99183">
        <ele>224</ele>
        <time>2015-05-15T07:37:25Z</time>
      </trkpt>
      <trkpt lat="47.32127" lon="5.99191">
        <ele>223</ele>
        <time>2015-05-15T07:37:27Z</time>
      </trkpt>
      <trkpt lat="47.32129" lon="5.99198">
        <ele>223</ele>
        <time>2015-05-15T07:37:29Z</time>
      </trkpt>
      <trkpt lat="47.32133" lon="5.99207">
        <ele>223</ele>
        <time>2015-05-15T07:37:31Z</time>
      </trkpt>
      <trkpt lat="47.32136" lon="5.99215">
        <ele>222</ele>
        <time>2015-05-15T07:37:33Z</time>
      </trkpt>
      <trkpt lat="47.32139" lon="5.99222">
        <ele>222</ele>
        <time>2015-05-15T07:37:35Z</time>
      </trkpt>
      <trkpt lat="47.32142" lon="5.99231">
        <ele>221</ele>
        <time>2015-05-15T07:37:37Z</time>
      </trkpt>
      <trkpt lat="47.32146" lon="5.99239">
        <ele>221</ele>
        <time>2015-05-15T07:37:39Z</time>
      </trkpt>
      <trkpt lat="47.32151" lon="5.99251">
        <ele>220</ele>
        <time>2015-05-15T07:37:42Z</time>
      </trkpt>
      <trkpt lat="47.32155" lon="5.99259">
        <ele>220</ele>
        <time>2015-05-15T07:37:44Z</time>
      </trkpt>
      <trkpt lat="47.32158" lon="5.99267">
        <ele>219</ele>
        <time>2015-05-15T07:37:46Z</time>
      </trkpt>
      <trkpt lat="47.3216" lon="5.99277">
        <ele>219</ele>
        <time>2015-05-15T07:37:48Z</time>
      </trkpt>
      <trkpt lat="47.32164" lon="5.99285">
        <ele>219</ele>
        <time>2015-05-15T07:37:50Z</time>
      </trkpt>
      <trkpt lat="47.32169" lon="5.99296">
        <ele>218</ele>
        <time>2015-05-15T07:37:53Z</time>
      </trkpt>
      <trkpt lat="47.32172" lon="5.99304">
        <ele>218</ele>
        <time>2015-05-15T07:37:55Z</time>
      </trkpt>
      <trkpt lat="47.32176" lon="5.99313">
        <ele>218</ele>
        <time>2015-05-15T07:37:57Z</time>
      </trkpt>
      <trkpt lat="47.32179" lon="5.99321">
        <ele>218</ele>
        <time>2015-05-15T07:37:59Z</time>
      </trkpt>
      <trkpt lat="47.32182" lon="5.9933">
        <ele>218</ele>
        <time>2015-05-15T07:38:01Z</time>
      </trkpt>
      <trkpt lat="47.32186" lon="5.99338">
        <ele>218</ele>
        <time>2015-05-15T07:38:03Z</time>
      </trkpt>
      <trkpt lat="47.32189" lon="5.99345">
        <ele>217</ele>
        <time>2015-05-15T07:38:05Z</time>
      </trkpt>
      <trkpt lat="47.32194" lon="5.99355">
        <ele>217</ele>
        <time>2015-05-15T07:38:08Z</time>
      </trkpt>
      <trkpt lat="47.32197" lon="5.99363">
        <ele>217</ele>
        <time>2015-05-15T07:38:10Z</time>
      </trkpt>
      <trkpt lat="47.32199" lon="5.99369">
        <ele>217</ele>
        <time>2015-05-15T07:38:12Z</time>
      </trkpt>
      <trkpt lat="47.32201" lon="5.99376">
        <ele>217</ele>
        <time>2015-05-15T07:38:14Z</time>
      </trkpt>
      <trkpt lat="47.32204" lon="5.99383">
        <ele>217</ele>
        <time>2015-05-15T07:38:16Z</time>
      </trkpt>
      <trkpt lat="47.32206" lon="5.99391">
        <ele>217</ele>
        <time>2015-05-15T07:38:18Z</time>
      </trkpt>
      <trkpt lat="47.32209" lon="5.99398">
        <ele>217</ele>
        <time>2015-05-15T07:38:20Z</time>
      </trkpt>
      <trkpt lat="47.32213" lon="5.9941">
        <ele>217</ele>
        <time>2015-05-15T07:38:23Z</time>
      </trkpt>
      <trkpt lat="47.32216" lon="5.99418">
        <ele>216</ele>
        <time>2015-05-15T07:38:25Z</time>
      </trkpt>
      <trkpt lat="47.32218" lon="5.99428">
        <ele>217</ele>
        <time>2015-05-15T07:38:27Z</time>
      </trkpt>
      <trkpt lat="47.32221" lon="5.99435">
        <ele>217</ele>
        <time>2015-05-15T07:38:29Z</time>
      </trkpt>
      <trkpt lat="47.32224" lon="5.99444">
        <ele>217</ele>
        <time>2015-05-15T07:38:31Z</time>
      </trkpt>
      <trkpt lat="47.32227" lon="5.99452">
        <ele>217</ele>
        <time>2015-05-15T07:38:33Z</time>
      </trkpt>
      <trkpt lat="47.32229" lon="5.9946">
        <ele>217</ele>
        <time>2015-05-15T07:38:35Z</time>
      </trkpt>
      <trkpt lat="47.32232" lon="5.99467">
        <ele>217</ele>
        <time>2015-05-15T07:38:37Z</time>
      </trkpt>
      <trkpt lat="47.32235" lon="5.99479">
        <ele>216</ele>
        <time>2015-05-15T07:38:40Z</time>
      </trkpt>
      <trkpt lat="47.32238" lon="5.99486">
        <ele>216</ele>
        <time>2015-05-15T07:38:42Z</time>
      </trkpt>
      <trkpt lat="47.3224" lon="5.99494">
        <ele>216</ele>
        <time>2015-05-15T07:38:44Z</time>
      </trkpt>
      <trkpt lat="47.32242" lon="5.99502">
        <ele>216</ele>
        <time>2015-05-15T07:38:46Z</time>
      </trkpt>
      <trkpt lat="47.32245" lon="5.99509">
        <ele>215</ele>
        <time>2015-05-15T07:38:48Z</time>
      </trkpt>
      <trkpt lat="47.32247" lon="5.99516">
        <ele>215</ele>
        <time>2015-05-15T07:38:50Z</time>
      </trkpt>
      <trkpt lat="47.32249" lon="5.99525">
        <ele>214</ele>
        <time>2015-05-15T07:38:53Z</time>
      </trkpt>
      <trkpt lat="47.32251" lon="5.99531">
        <ele>214</ele>
        <time>2015-05-15T07:38:55Z</time>
      </trkpt>
      <trkpt lat="47.32254" lon="5.99538">
        <ele>214</ele>
        <time>2015-05-15T07:38:57Z</time>
      </trkpt>
      <trkpt lat="47.32259" lon="5.9955">
        <ele>213</ele>
        <time>2015-05-15T07:39:01Z</time>
      </trkpt>
      <trkpt lat="47.32261" lon="5.99557">
        <ele>213</ele>
        <time>2015-05-15T07:39:03Z</time>
      </trkpt>
      <trkpt lat="47.32263" lon="5.99564">
        <ele>212</ele>
        <time>2015-05-15T07:39:05Z</time>
      </trkpt>
      <trkpt lat="47.32272" lon="5.99559">
        <ele>212</ele>
        <time>2015-05-15T07:39:07Z</time>
      </trkpt>
      <trkpt lat="47.3228" lon="5.99564">
        <ele>212</ele>
        <time>2015-05-15T07:39:09Z</time>
      </trkpt>
      <trkpt lat="47.32282" lon="5.99571">
        <ele>212</ele>
        <time>2015-05-15T07:39:12Z</time>
      </trkpt>
      <trkpt lat="47.32288" lon="5.99585">
        <ele>211</ele>
        <time>2015-05-15T07:39:14Z</time>
      </trkpt>
      <trkpt lat="47.32292" lon="5.99593">
        <ele>211</ele>
        <time>2015-05-15T07:39:16Z</time>
      </trkpt>
      <trkpt lat="47.32295" lon="5.99606">
        <ele>210</ele>
        <time>2015-05-15T07:39:18Z</time>
      </trkpt>
      <trkpt lat="47.32299" lon="5.99616">
        <ele>210</ele>
        <time>2015-05-15T07:39:20Z</time>
      </trkpt>
      <trkpt lat="47.32303" lon="5.99633">
        <ele>210</ele>
        <time>2015-05-15T07:39:23Z</time>
      </trkpt>
      <trkpt lat="47.32306" lon="5.99642">
        <ele>209</ele>
        <time>2015-05-15T07:39:25Z</time>
      </trkpt>
      <trkpt lat="47.32308" lon="5.9965">
        <ele>209</ele>
        <time>2015-05-15T07:39:27Z</time>
      </trkpt>
      <trkpt lat="47.32312" lon="5.99656">
        <ele>209</ele>
        <time>2015-05-15T07:39:29Z</time>
      </trkpt>
      <trkpt lat="47.32315" lon="5.99662">
        <ele>208</ele>
        <time>2015-05-15T07:39:31Z</time>
      </trkpt>
      <trkpt lat="47.3232" lon="5.99672">
        <ele>208</ele>
        <time>2015-05-15T07:39:35Z</time>
      </trkpt>
      <trkpt lat="47.32323" lon="5.99677">
        <ele>208</ele>
        <time>2015-05-15T07:39:37Z</time>
      </trkpt>
      <trkpt lat="47.32326" lon="5.99684">
        <ele>207</ele>
        <time>2015-05-15T07:39:39Z</time>
      </trkpt>
      <trkpt lat="47.32328" lon="5.9969">
        <ele>207</ele>
        <time>2015-05-15T07:39:41Z</time>
      </trkpt>
      <trkpt lat="47.32332" lon="5.99698">
        <ele>207</ele>
        <time>2015-05-15T07:39:44Z</time>
      </trkpt>
      <trkpt lat="47.32336" lon="5.99703">
        <ele>206</ele>
        <time>2015-05-15T07:39:46Z</time>
      </trkpt>
      <trkpt lat="47.3234" lon="5.99708">
        <ele>206</ele>
        <time>2015-05-15T07:39:48Z</time>
      </trkpt>
      <trkpt lat="47.32342" lon="5.99715">
        <ele>205</ele>
        <time>2015-05-15T07:39:50Z</time>
      </trkpt>
      <trkpt lat="47.32347" lon="5.99723">
        <ele>205</ele>
        <time>2015-05-15T07:39:53Z</time>
      </trkpt>
      <trkpt lat="47.3235" lon="5.99736">
        <ele>204</ele>
        <time>2015-05-15T07:39:57Z</time>
      </trkpt>
      <trkpt lat="47.32352" lon="5.99743">
        <ele>204</ele>
        <time>2015-05-15T07:39:59Z</time>
      </trkpt>
      <trkpt lat="47.32354" lon="5.99752">
        <ele>204</ele>
        <time>2015-05-15T07:40:01Z</time>
      </trkpt>
      <trkpt lat="47.32358" lon="5.99758">
        <ele>203</ele>
        <time>2015-05-15T07:40:03Z</time>
      </trkpt>
      <trkpt lat="47.3236" lon="5.99764">
        <ele>203</ele>
        <time>2015-05-15T07:40:05Z</time>
      </trkpt>
      <trkpt lat="47.32362" lon="5.99771">
        <ele>203</ele>
        <time>2015-05-15T07:40:07Z</time>
      </trkpt>
      <trkpt lat="47.32366" lon="5.99779">
        <ele>202</ele>
        <time>2015-05-15T07:40:11Z</time>
      </trkpt>
      <trkpt lat="47.3237" lon="5.99787">
        <ele>201</ele>
        <time>2015-05-15T07:40:14Z</time>
      </trkpt>
      <trkpt lat="47.32373" lon="5.99792">
        <ele>200</ele>
        <time>2015-05-15T07:40:16Z</time>
      </trkpt>
      <trkpt lat="47.32377" lon="5.99799">
        <ele>200</ele>
        <time>2015-05-15T07:40:18Z</time>
      </trkpt>
      <trkpt lat="47.32378" lon="5.9981">
        <ele>199</ele>
        <time>2015-05-15T07:40:20Z</time>
      </trkpt>
      <trkpt lat="47.32382" lon="5.99826">
        <ele>199</ele>
        <time>2015-05-15T07:40:23Z</time>
      </trkpt>
      <trkpt lat="47.32387" lon="5.99832">
        <ele>199</ele>
        <time>2015-05-15T07:40:25Z</time>
      </trkpt>
      <trkpt lat="47.32391" lon="5.99837">
        <ele>198</ele>
        <time>2015-05-15T07:40:27Z</time>
      </trkpt>
      <trkpt lat="47.32394" lon="5.99843">
        <ele>198</ele>
        <time>2015-05-15T07:40:29Z</time>
      </trkpt>
      <trkpt lat="47.324" lon="5.99855">
        <ele>197</ele>
        <time>2015-05-15T07:40:33Z</time>
      </trkpt>
      <trkpt lat="47.32402" lon="5.99864">
        <ele>196</ele>
        <time>2015-05-15T07:40:37Z</time>
      </trkpt>
      <trkpt lat="47.32408" lon="5.9987">
        <ele>195</ele>
        <time>2015-05-15T07:40:41Z</time>
      </trkpt>
      <trkpt lat="47.32413" lon="5.99872">
        <ele>195</ele>
        <time>2015-05-15T07:40:44Z</time>
      </trkpt>
      <trkpt lat="47.3242" lon="5.99877">
        <ele>194</ele>
        <time>2015-05-15T07:40:48Z</time>
      </trkpt>
      <trkpt lat="47.32424" lon="5.99885">
        <ele>193</ele>
        <time>2015-05-15T07:40:51Z</time>
      </trkpt>
      <trkpt lat="47.32428" lon="5.99891">
        <ele>193</ele>
        <time>2015-05-15T07:40:53Z</time>
      </trkpt>
      <trkpt lat="47.32431" lon="5.999">
        <ele>193</ele>
        <time>2015-05-15T07:40:55Z</time>
      </trkpt>
      <trkpt lat="47.32435" lon="5.99906">
        <ele>192</ele>
        <time>2015-05-15T07:40:57Z</time>
      </trkpt>
      <trkpt lat="47.32436" lon="5.99919">
        <ele>192</ele>
        <time>2015-05-15T07:40:59Z</time>
      </trkpt>
      <trkpt lat="47.32455" lon="5.99972">
        <ele>191</ele>
        <time>2015-05-15T07:41:16Z</time>
      </trkpt>
      <trkpt lat="47.32462" lon="5.99979">
        <ele>191</ele>
        <time>2015-05-15T07:41:19Z</time>
      </trkpt>
      <trkpt lat="47.32496" lon="6.00006">
        <ele>190</ele>
        <time>2015-05-15T07:41:35Z</time>
      </trkpt>
      <trkpt lat="47.32501" lon="6.00008">
        <ele>190</ele>
        <time>2015-05-15T07:41:38Z</time>
      </trkpt>
      <trkpt lat="47.32522" lon="6.00025">
        <ele>188</ele>
        <time>2015-05-15T07:41:51Z</time>
      </trkpt>
      <trkpt lat="47.32536" lon="6.00031">
        <ele>188</ele>
        <time>2015-05-15T07:41:57Z</time>
      </trkpt>
      <trkpt lat="47.32541" lon="6.0003">
        <ele>188</ele>
        <time>2015-05-15T07:41:59Z</time>
      </trkpt>
      <trkpt lat="47.32575" lon="6.00041">
        <ele>189</ele>
        <time>2015-05-15T07:42:16Z</time>
      </trkpt>
      <trkpt lat="47.3258" lon="6.00042">
        <ele>190</ele>
        <time>2015-05-15T07:42:18Z</time>
      </trkpt>
      <trkpt lat="47.3262" lon="6.00056">
        <ele>192</ele>
        <time>2015-05-15T07:42:35Z</time>
      </trkpt>
      <trkpt lat="47.32629" lon="6.00062">
        <ele>193</ele>
        <time>2015-05-15T07:42:39Z</time>
      </trkpt>
      <trkpt lat="47.3266" lon="6.00067">
        <ele>195</ele>
        <time>2015-05-15T07:42:52Z</time>
      </trkpt>
      <trkpt lat="47.32671" lon="6.0007">
        <ele>195</ele>
        <time>2015-05-15T07:42:57Z</time>
      </trkpt>
      <trkpt lat="47.32676" lon="6.00074">
        <ele>195</ele>
        <time>2015-05-15T07:42:59Z</time>
      </trkpt>
      <trkpt lat="47.32717" lon="6.00108">
        <ele>203</ele>
        <time>2015-05-15T07:43:17Z</time>
      </trkpt>
      <trkpt lat="47.32723" lon="6.00111">
        <ele>203</ele>
        <time>2015-05-15T07:43:19Z</time>
      </trkpt>
      <trkpt lat="47.32766" lon="6.0013">
        <ele>207</ele>
        <time>2015-05-15T07:43:37Z</time>
      </trkpt>
      <trkpt lat="47.32772" lon="6.00133">
        <ele>208</ele>
        <time>2015-05-15T07:43:39Z</time>
      </trkpt>
      <trkpt lat="47.3278" lon="6.00138">
        <ele>209</ele>
        <time>2015-05-15T07:43:42Z</time>
      </trkpt>
      <trkpt lat="47.3281" lon="6.00153">
        <ele>212</ele>
        <time>2015-05-15T07:43:52Z</time>
      </trkpt>
      <trkpt lat="47.32819" lon="6.00156">
        <ele>211</ele>
        <time>2015-05-15T07:43:56Z</time>
      </trkpt>
      <trkpt lat="47.32826" lon="6.00161">
        <ele>211</ele>
        <time>2015-05-15T07:44:00Z</time>
      </trkpt>
      <trkpt lat="47.32869" lon="6.0018">
        <ele>213</ele>
        <time>2015-05-15T07:44:16Z</time>
      </trkpt>
      <trkpt lat="47.32873" lon="6.00185">
        <ele>213</ele>
        <time>2015-05-15T07:44:18Z</time>
      </trkpt>
      <trkpt lat="47.32916" lon="6.00178">
        <ele>217</ele>
        <time>2015-05-15T07:44:36Z</time>
      </trkpt>
      <trkpt lat="47.32922" lon="6.00175">
        <ele>218</ele>
        <time>2015-05-15T07:44:38Z</time>
      </trkpt>
      <trkpt lat="47.32962" lon="6.0017">
        <ele>220</ele>
        <time>2015-05-15T07:44:52Z</time>
      </trkpt>
      <trkpt lat="47.3298" lon="6.00169">
        <ele>222</ele>
        <time>2015-05-15T07:44:57Z</time>
      </trkpt>
      <trkpt lat="47.32985" lon="6.00168">
        <ele>222</ele>
        <time>2015-05-15T07:44:59Z</time>
      </trkpt>
      <trkpt lat="47.33041" lon="6.00146">
        <ele>231</ele>
        <time>2015-05-15T07:45:16Z</time>
      </trkpt>
      <trkpt lat="47.3305" lon="6.00138">
        <ele>232</ele>
        <time>2015-05-15T07:45:19Z</time>
      </trkpt>
      <trkpt lat="47.33056" lon="6.00126">
        <ele>233</ele>
        <time>2015-05-15T07:45:22Z</time>
      </trkpt>
      <trkpt lat="47.3306" lon="6.00118">
        <ele>233</ele>
        <time>2015-05-15T07:45:24Z</time>
      </trkpt>
      <trkpt lat="47.33073" lon="6.00083">
        <ele>232</ele>
        <time>2015-05-15T07:45:33Z</time>
      </trkpt>
      <trkpt lat="47.33076" lon="6.00076">
        <ele>232</ele>
        <time>2015-05-15T07:45:35Z</time>
      </trkpt>
      <trkpt lat="47.33079" lon="6.00068">
        <ele>232</ele>
        <time>2015-05-15T07:45:37Z</time>
      </trkpt>
      <trkpt lat="47.33081" lon="6.00062">
        <ele>232</ele>
        <time>2015-05-15T07:45:39Z</time>
      </trkpt>
      <trkpt lat="47.33089" lon="6.00044">
        <ele>233</ele>
        <time>2015-05-15T07:45:44Z</time>
      </trkpt>
      <trkpt lat="47.331" lon="6.00017">
        <ele>233</ele>
        <time>2015-05-15T07:45:51Z</time>
      </trkpt>
      <trkpt lat="47.3311" lon="6">
        <ele>233</ele>
        <time>2015-05-15T07:45:56Z</time>
      </trkpt>
      <trkpt lat="47.33115" lon="5.99994">
        <ele>232</ele>
        <time>2015-05-15T07:45:58Z</time>
      </trkpt>
      <trkpt lat="47.33158" lon="5.99941">
        <ele>230</ele>
        <time>2015-05-15T07:46:17Z</time>
      </trkpt>
      <trkpt lat="47.33164" lon="5.99938">
        <ele>230</ele>
        <time>2015-05-15T07:46:19Z</time>
      </trkpt>
      <trkpt lat="47.33208" lon="5.99915">
        <ele>228</ele>
        <time>2015-05-15T07:46:36Z</time>
      </trkpt>
      <trkpt lat="47.33215" lon="5.99911">
        <ele>228</ele>
        <time>2015-05-15T07:46:39Z</time>
      </trkpt>
      <trkpt lat="47.33247" lon="5.99879">
        <ele>227</ele>
        <time>2015-05-15T07:46:52Z</time>
      </trkpt>
      <trkpt lat="47.33264" lon="5.99869">
        <ele>226</ele>
        <time>2015-05-15T07:46:57Z</time>
      </trkpt>
      <trkpt lat="47.3327" lon="5.99864">
        <ele>226</ele>
        <time>2015-05-15T07:46:59Z</time>
      </trkpt>
      <trkpt lat="47.33316" lon="5.99832">
        <ele>222</ele>
        <time>2015-05-15T07:47:17Z</time>
      </trkpt>
      <trkpt lat="47.33322" lon="5.99828">
        <ele>222</ele>
        <time>2015-05-15T07:47:19Z</time>
      </trkpt>
      <trkpt lat="47.33364" lon="5.99812">
        <ele>218</ele>
        <time>2015-05-15T07:47:37Z</time>
      </trkpt>
      <trkpt lat="47.33389" lon="5.99837">
        <ele>215</ele>
        <time>2015-05-15T07:47:51Z</time>
      </trkpt>
      <trkpt lat="47.33398" lon="5.99858">
        <ele>215</ele>
        <time>2015-05-15T07:47:57Z</time>
      </trkpt>
      <trkpt lat="47.334" lon="5.99865">
        <ele>215</ele>
        <time>2015-05-15T07:47:59Z</time>
      </trkpt>
      <trkpt lat="47.33395" lon="5.99928">
        <ele>213</ele>
        <time>2015-05-15T07:48:16Z</time>
      </trkpt>
      <trkpt lat="47.33384" lon="5.99992">
        <ele>211</ele>
        <time>2015-05-15T07:48:37Z</time>
      </trkpt>
      <trkpt lat="47.33383" lon="6">
        <ele>211</ele>
        <time>2015-05-15T07:48:39Z</time>
      </trkpt>
      <trkpt lat="47.33379" lon="6.00035">
        <ele>211</ele>
        <time>2015-05-15T07:48:49Z</time>
      </trkpt>
      <trkpt lat="47.33377" lon="6.00044">
        <ele>211</ele>
        <time>2015-05-15T07:48:52Z</time>
      </trkpt>
      <trkpt lat="47.33377" lon="6.00053">
        <ele>211</ele>
        <time>2015-05-15T07:48:55Z</time>
      </trkpt>
      <trkpt lat="47.33376" lon="6.00063">
        <ele>211</ele>
        <time>2015-05-15T07:48:58Z</time>
      </trkpt>
      <trkpt lat="47.33387" lon="6.00129">
        <ele>212</ele>
        <time>2015-05-15T07:49:15Z</time>
      </trkpt>
      <trkpt lat="47.33392" lon="6.00146">
        <ele>212</ele>
        <time>2015-05-15T07:49:19Z</time>
      </trkpt>
      <trkpt lat="47.33399" lon="6.00215">
        <ele>215</ele>
        <time>2015-05-15T07:49:37Z</time>
      </trkpt>
      <trkpt lat="47.334" lon="6.00223">
        <ele>215</ele>
        <time>2015-05-15T07:49:39Z</time>
      </trkpt>
      <trkpt lat="47.3341" lon="6.00265">
        <ele>221</ele>
        <time>2015-05-15T07:49:51Z</time>
      </trkpt>
      <trkpt lat="47.33409" lon="6.00286">
        <ele>223</ele>
        <time>2015-05-15T07:49:57Z</time>
      </trkpt>
      <trkpt lat="47.33409" lon="6.00294">
        <ele>224</ele>
        <time>2015-05-15T07:49:59Z</time>
      </trkpt>
      <trkpt lat="47.33407" lon="6.00306">
        <ele>226</ele>
        <time>2015-05-15T07:50:02Z</time>
      </trkpt>
      <trkpt lat="47.3341" lon="6.00361">
        <ele>230</ele>
        <time>2015-05-15T07:50:16Z</time>
      </trkpt>
      <trkpt lat="47.33408" lon="6.00374">
        <ele>230</ele>
        <time>2015-05-15T07:50:19Z</time>
      </trkpt>
      <trkpt lat="47.33398" lon="6.00446">
        <ele>231</ele>
        <time>2015-05-15T07:50:37Z</time>
      </trkpt>
      <trkpt lat="47.33396" lon="6.00453">
        <ele>231</ele>
        <time>2015-05-15T07:50:39Z</time>
      </trkpt>
      <trkpt lat="47.3338" lon="6.00496">
        <ele>231</ele>
        <time>2015-05-15T07:50:52Z</time>
      </trkpt>
      <trkpt lat="47.33373" lon="6.00512">
        <ele>231</ele>
        <time>2015-05-15T07:50:57Z</time>
      </trkpt>
      <trkpt lat="47.3337" lon="6.00518">
        <ele>230</ele>
        <time>2015-05-15T07:50:59Z</time>
      </trkpt>
      <trkpt lat="47.33353" lon="6.00546">
        <ele>230</ele>
        <time>2015-05-15T07:51:16Z</time>
      </trkpt>
      <trkpt lat="47.33349" lon="6.00574">
        <ele>218</ele>
        <time>2015-05-15T07:51:52Z</time>
      </trkpt>
      <trkpt lat="47.33341" lon="6.0059">
        <ele>220</ele>
        <time>2015-05-15T07:51:57Z</time>
      </trkpt>
      <trkpt lat="47.33337" lon="6.00598">
        <ele>220</ele>
        <time>2015-05-15T07:51:59Z</time>
      </trkpt>
      <trkpt lat="47.33314" lon="6.00671">
        <ele>222</ele>
        <time>2015-05-15T07:52:17Z</time>
      </trkpt>
      <trkpt lat="47.33293" lon="6.00739">
        <ele>223</ele>
        <time>2015-05-15T07:52:37Z</time>
      </trkpt>
      <trkpt lat="47.33291" lon="6.00746">
        <ele>224</ele>
        <time>2015-05-15T07:52:39Z</time>
      </trkpt>
      <trkpt lat="47.33277" lon="6.00793">
        <ele>225</ele>
        <time>2015-05-15T07:52:52Z</time>
      </trkpt>
      <trkpt lat="47.33272" lon="6.00807">
        <ele>225</ele>
        <time>2015-05-15T07:52:56Z</time>
      </trkpt>
      <trkpt lat="47.3327" lon="6.00815">
        <ele>225</ele>
        <time>2015-05-15T07:52:58Z</time>
      </trkpt>
      <trkpt lat="47.33264" lon="6.00877">
        <ele>223</ele>
        <time>2015-05-15T07:53:17Z</time>
      </trkpt>
      <trkpt lat="47.33268" lon="6.00884">
        <ele>223</ele>
        <time>2015-05-15T07:53:19Z</time>
      </trkpt>
      <trkpt lat="47.33299" lon="6.00942">
        <ele>219</ele>
        <time>2015-05-15T07:53:37Z</time>
      </trkpt>
      <trkpt lat="47.33302" lon="6.00948">
        <ele>218</ele>
        <time>2015-05-15T07:53:39Z</time>
      </trkpt>
      <trkpt lat="47.33321" lon="6.00983">
        <ele>214</ele>
        <time>2015-05-15T07:53:52Z</time>
      </trkpt>
      <trkpt lat="47.33321" lon="6.00995">
        <ele>214</ele>
        <time>2015-05-15T07:53:56Z</time>
      </trkpt>
      <trkpt lat="47.33319" lon="6.01002">
        <ele>214</ele>
        <time>2015-05-15T07:53:58Z</time>
      </trkpt>
      <trkpt lat="47.33316" lon="6.0101">
        <ele>213</ele>
        <time>2015-05-15T07:54:01Z</time>
      </trkpt>
      <trkpt lat="47.333" lon="6.01019">
        <ele>212</ele>
        <time>2015-05-15T07:54:08Z</time>
      </trkpt>
      <trkpt lat="47.3328" lon="6.01016">
        <ele>210</ele>
        <time>2015-05-15T07:54:17Z</time>
      </trkpt>
      <trkpt lat="47.3323" lon="6.01055">
        <ele>207</ele>
        <time>2015-05-15T07:54:36Z</time>
      </trkpt>
      <trkpt lat="47.33221" lon="6.01058">
        <ele>207</ele>
        <time>2015-05-15T07:54:39Z</time>
      </trkpt>
      <trkpt lat="47.33194" lon="6.01081">
        <ele>205</ele>
        <time>2015-05-15T07:54:52Z</time>
      </trkpt>
      <trkpt lat="47.33185" lon="6.01092">
        <ele>204</ele>
        <time>2015-05-15T07:54:56Z</time>
      </trkpt>
      <trkpt lat="47.3318" lon="6.01098">
        <ele>204</ele>
        <time>2015-05-15T07:54:58Z</time>
      </trkpt>
      <trkpt lat="47.33133" lon="6.01144">
        <ele>204</ele>
        <time>2015-05-15T07:55:17Z</time>
      </trkpt>
      <trkpt lat="47.33128" lon="6.01146">
        <ele>205</ele>
        <time>2015-05-15T07:55:19Z</time>
      </trkpt>
      <trkpt lat="47.33089" lon="6.01188">
        <ele>207</ele>
        <time>2015-05-15T07:55:36Z</time>
      </trkpt>
      <trkpt lat="47.33085" lon="6.01192">
        <ele>207</ele>
        <time>2015-05-15T07:55:38Z</time>
      </trkpt>
      <trkpt lat="47.3306" lon="6.01222">
        <ele>209</ele>
        <time>2015-05-15T07:55:52Z</time>
      </trkpt>
      <trkpt lat="47.3305" lon="6.01237">
        <ele>210</ele>
        <time>2015-05-15T07:55:57Z</time>
      </trkpt>
      <trkpt lat="47.33046" lon="6.01242">
        <ele>210</ele>
        <time>2015-05-15T07:55:59Z</time>
      </trkpt>
      <trkpt lat="47.33011" lon="6.01292">
        <ele>213</ele>
        <time>2015-05-15T07:56:17Z</time>
      </trkpt>
      <trkpt lat="47.33006" lon="6.013">
        <ele>213</ele>
        <time>2015-05-15T07:56:19Z</time>
      </trkpt>
      <trkpt lat="47.32978" lon="6.01341">
        <ele>216</ele>
        <time>2015-05-15T07:56:36Z</time>
      </trkpt>
      <trkpt lat="47.32974" lon="6.01348">
        <ele>216</ele>
        <time>2015-05-15T07:56:38Z</time>
      </trkpt>
      <trkpt lat="47.32967" lon="6.01356">
        <ele>217</ele>
        <time>2015-05-15T07:56:41Z</time>
      </trkpt>
      <trkpt lat="47.32961" lon="6.01362">
        <ele>217</ele>
        <time>2015-05-15T07:56:44Z</time>
      </trkpt>
      <trkpt lat="47.32949" lon="6.0138">
        <ele>218</ele>
        <time>2015-05-15T07:56:51Z</time>
      </trkpt>
      <trkpt lat="47.32943" lon="6.01388">
        <ele>218</ele>
        <time>2015-05-15T07:56:54Z</time>
      </trkpt>
      <trkpt lat="47.32938" lon="6.01392">
        <ele>218</ele>
        <time>2015-05-15T07:56:57Z</time>
      </trkpt>
      <trkpt lat="47.32934" lon="6.01397">
        <ele>218</ele>
        <time>2015-05-15T07:56:59Z</time>
      </trkpt>
      <trkpt lat="47.32899" lon="6.01431">
        <ele>218</ele>
        <time>2015-05-15T07:57:15Z</time>
      </trkpt>
      <trkpt lat="47.32893" lon="6.01435">
        <ele>218</ele>
        <time>2015-05-15T07:57:18Z</time>
      </trkpt>
      <trkpt lat="47.3284" lon="6.0146">
        <ele>218</ele>
        <time>2015-05-15T07:57:37Z</time>
      </trkpt>
      <trkpt lat="47.32813" lon="6.01452">
        <ele>217</ele>
        <time>2015-05-15T07:57:50Z</time>
      </trkpt>
      <trkpt lat="47.32804" lon="6.01438">
        <ele>220</ele>
        <time>2015-05-15T07:57:57Z</time>
      </trkpt>
      <trkpt lat="47.32836" lon="6.01393">
        <ele>222</ele>
        <time>2015-05-15T07:58:17Z</time>
      </trkpt>
      <trkpt lat="47.32867" lon="6.01362">
        <ele>222</ele>
        <time>2015-05-15T07:58:36Z</time>
      </trkpt>
      <trkpt lat="47.32864" lon="6.01354">
        <ele>222</ele>
        <time>2015-05-15T07:58:39Z</time>
      </trkpt>
      <trkpt lat="47.32862" lon="6.0132">
        <ele>222</ele>
        <time>2015-05-15T07:58:52Z</time>
      </trkpt>
      <trkpt lat="47.3286" lon="6.01305">
        <ele>222</ele>
        <time>2015-05-15T07:58:56Z</time>
      </trkpt>
      <trkpt lat="47.32854" lon="6.01292">
        <ele>221</ele>
        <time>2015-05-15T07:58:59Z</time>
      </trkpt>
      <trkpt lat="47.32851" lon="6.01278">
        <ele>221</ele>
        <time>2015-05-15T07:59:02Z</time>
      </trkpt>
      <trkpt lat="47.32854" lon="6.01268">
        <ele>221</ele>
        <time>2015-05-15T07:59:06Z</time>
      </trkpt>
      <trkpt lat="47.32853" lon="6.01261">
        <ele>221</ele>
        <time>2015-05-15T07:59:08Z</time>
      </trkpt>
      <trkpt lat="47.32851" lon="6.01251">
        <ele>221</ele>
        <time>2015-05-15T07:59:12Z</time>
      </trkpt>
      <trkpt lat="47.32851" lon="6.0124">
        <ele>222</ele>
        <time>2015-05-15T07:59:17Z</time>
      </trkpt>
      <trkpt lat="47.32852" lon="6.01229">
        <ele>222</ele>
        <time>2015-05-15T07:59:21Z</time>
      </trkpt>
      <trkpt lat="47.32856" lon="6.01224">
        <ele>221</ele>
        <time>2015-05-15T07:59:25Z</time>
      </trkpt>
      <trkpt lat="47.32856" lon="6.01215">
        <ele>222</ele>
        <time>2015-05-15T07:59:29Z</time>
      </trkpt>
      <trkpt lat="47.32854" lon="6.01207">
        <ele>222</ele>
        <time>2015-05-15T07:59:32Z</time>
      </trkpt>
      <trkpt lat="47.32851" lon="6.012">
        <ele>222</ele>
        <time>2015-05-15T07:59:36Z</time>
      </trkpt>
      <trkpt lat="47.32851" lon="6.01189">
        <ele>221</ele>
        <time>2015-05-15T07:59:40Z</time>
      </trkpt>
      <trkpt lat="47.32848" lon="6.01175">
        <ele>221</ele>
        <time>2015-05-15T07:59:44Z</time>
      </trkpt>
      <trkpt lat="47.32847" lon="6.01165">
        <ele>221</ele>
        <time>2015-05-15T07:59:47Z</time>
      </trkpt>
      <trkpt lat="47.32846" lon="6.01158">
        <ele>221</ele>
        <time>2015-05-15T07:59:49Z</time>
      </trkpt>
      <trkpt lat="47.32844" lon="6.01148">
        <ele>221</ele>
        <time>2015-05-15T07:59:51Z</time>
      </trkpt>
      <trkpt lat="47.32842" lon="6.01139">
        <ele>220</ele>
        <time>2015-05-15T07:59:53Z</time>
      </trkpt>
      <trkpt lat="47.32843" lon="6.01128">
        <ele>220</ele>
        <time>2015-05-15T07:59:57Z</time>
      </trkpt>
      <trkpt lat="47.3284" lon="6.01121">
        <ele>221</ele>
        <time>2015-05-15T08:00:01Z</time>
      </trkpt>
      <trkpt lat="47.3283" lon="6.01107">
        <ele>222</ele>
        <time>2015-05-15T08:00:04Z</time>
      </trkpt>
      <trkpt lat="47.32822" lon="6.01097">
        <ele>222</ele>
        <time>2015-05-15T08:00:06Z</time>
      </trkpt>
      <trkpt lat="47.32818" lon="6.01093">
        <ele>222</ele>
        <time>2015-05-15T08:00:08Z</time>
      </trkpt>
      <trkpt lat="47.32807" lon="6.01084">
        <ele>223</ele>
        <time>2015-05-15T08:00:10Z</time>
      </trkpt>
      <trkpt lat="47.32802" lon="6.01084">
        <ele>223</ele>
        <time>2015-05-15T08:00:12Z</time>
      </trkpt>
      <trkpt lat="47.32801" lon="6.01091">
        <ele>223</ele>
        <time>2015-05-15T08:00:15Z</time>
      </trkpt>
      <trkpt lat="47.32799" lon="6.01101">
        <ele>223</ele>
        <time>2015-05-15T08:00:19Z</time>
      </trkpt>
      <trkpt lat="47.32798" lon="6.01107">
        <ele>223</ele>
        <time>2015-05-15T08:00:23Z</time>
      </trkpt>
      <trkpt lat="47.32798" lon="6.01114">
        <ele>222</ele>
        <time>2015-05-15T08:00:36Z</time>
      </trkpt>
      <trkpt lat="47.32793" lon="6.0113">
        <ele>222</ele>
        <time>2015-05-15T08:00:40Z</time>
      </trkpt>
      <trkpt lat="47.32793" lon="6.01128">
        <ele>223</ele>
        <time>2015-05-15T08:00:53Z</time>
      </trkpt>
    </trkseg>
  </trk>
</gpx>